Wetterdaten: Samstag, 20.05.2023
Datum Zeit Temp. Aussen Temp. o. S. Temp +5cm Feuchte Auss Luftdruck Regen Sonnenschein Regendauer Solar Windben Empfang
20.05.2023 00:00 14,6 C 13,3 C 10,0 C 65 % 1023,6 hPa 0,0 l/m 0 min 0 min 0 W/m 6,4 km/h (2 Bft) 100,00 %
20.05.2023 00:02 14,5 C 13,3 C 10,0 C 65 % 1023,6 hPa 0,0 l/m 0 min 0 min 0 W/m 6,4 km/h (2 Bft) 97,44 %
20.05.2023 00:04 14,4 C 13,3 C 10,0 C 65 % 1023,5 hPa 0,0 l/m 0 min 0 min 0 W/m 3,2 km/h (1 Bft) 100,00 %
20.05.2023 00:08 14,4 C 13,3 C 10,0 C 65 % 1023,5 hPa 0,0 l/m 0 min 0 min 0 W/m 6,4 km/h (2 Bft) 97,94 %
20.05.2023 00:10 14,4 C 13,3 C 10,0 C 65 % 1023,5 hPa 0,0 l/m 0 min 0 min 0 W/m 3,2 km/h (1 Bft) 95,74 %
20.05.2023 00:12 14,3 C 13,3 C 10,0 C 66 % 1023,5 hPa 0,0 l/m 0 min 0 min 0 W/m 3,2 km/h (1 Bft) 100,00 %
20.05.2023 00:14 14,3 C 13,3 C 9,4 C 66 % 1023,5 hPa 0,0 l/m 0 min 0 min 0 W/m 3,2 km/h (1 Bft) 100,00 %
20.05.2023 00:16 14,3 C 13,3 C 9,4 C 66 % 1023,5 hPa 0,0 l/m 0 min 0 min 0 W/m 6,4 km/h (2 Bft) 97,87 %
20.05.2023 00:18 14,3 C 13,3 C 9,4 C 66 % 1023,5 hPa 0,0 l/m 0 min 0 min 0 W/m 6,4 km/h (2 Bft) 95,65 %
20.05.2023 00:20 14,3 C 13,3 C 9,4 C 66 % 1023,5 hPa 0,0 l/m 0 min 0 min 0 W/m 3,2 km/h (1 Bft) 95,74 %
20.05.2023 00:22 14,3 C 13,3 C 9,4 C 66 % 1023,5 hPa 0,0 l/m 0 min 0 min 0 W/m 3,2 km/h (1 Bft) 93,62 %
20.05.2023 00:24 14,3 C 13,3 C 9,4 C 66 % 1023,5 hPa 0,0 l/m 0 min 0 min 0 W/m 6,4 km/h (2 Bft) 95,74 %
20.05.2023 00:26 14,2 C 12,8 C 9,4 C 67 % 1023,5 hPa 0,0 l/m 0 min 0 min 0 W/m 3,2 km/h (1 Bft) 93,62 %
20.05.2023 00:28 14,2 C 12,8 C 9,4 C 66 % 1023,5 hPa 0,0 l/m 0 min 0 min 0 W/m 6,4 km/h (2 Bft) 95,74 %
20.05.2023 00:30 14,2 C 12,8 C 9,4 C 67 % 1023,5 hPa 0,0 l/m 0 min 0 min 0 W/m 3,2 km/h (1 Bft) 51,06 %
20.05.2023 00:32 14,1 C 12,8 C 9,4 C 67 % 1023,5 hPa 0,0 l/m 0 min 0 min 0 W/m 3,2 km/h (1 Bft) 95,65 %
20.05.2023 00:34 14,1 C 12,8 C 9,4 C 67 % 1023,5 hPa 0,0 l/m 0 min 0 min 0 W/m 3,2 km/h (1 Bft) 95,74 %
20.05.2023 00:36 14,1 C 12,8 C 9,4 C 67 % 1023,5 hPa 0,0 l/m 0 min 0 min 0 W/m 3,2 km/h (1 Bft) 95,74 %
20.05.2023 00:38 14,0 C 12,8 C 9,4 C 68 % 1023,5 hPa 0,0 l/m 0 min 0 min 0 W/m 9,7 km/h (2 Bft) 95,74 %
20.05.2023 00:40 13,9 C 12,8 C 9,4 C 67 % 1023,5 hPa 0,0 l/m 0 min 0 min 0 W/m 3,2 km/h (1 Bft) 95,74 %
20.05.2023 00:42 13,9 C 12,8 C 9,4 C 68 % 1023,5 hPa 0,0 l/m 0 min 0 min 0 W/m 3,2 km/h (1 Bft) 97,87 %
20.05.2023 00:44 13,9 C 12,8 C 9,4 C 68 % 1023,5 hPa 0,0 l/m 0 min 0 min 0 W/m 6,4 km/h (2 Bft) 91,30 %
20.05.2023 00:46 13,9 C 12,8 C 9,4 C 68 % 1023,5 hPa 0,0 l/m 0 min 0 min 0 W/m 6,4 km/h (2 Bft) 91,49 %
20.05.2023 00:48 13,8 C 12,8 C 9,4 C 68 % 1023,5 hPa 0,0 l/m 0 min 0 min 0 W/m 3,2 km/h (1 Bft) 95,74 %
20.05.2023 00:50 13,8 C 12,8 C 9,4 C 68 % 1023,5 hPa 0,0 l/m 0 min 0 min 0 W/m 6,4 km/h (2 Bft) 93,62 %
20.05.2023 00:52 13,8 C 12,8 C 9,4 C 68 % 1023,5 hPa 0,0 l/m 0 min 0 min 0 W/m 3,2 km/h (1 Bft) 91,49 %
20.05.2023 00:54 13,8 C 12,8 C 9,4 C 68 % 1023,5 hPa 0,0 l/m 0 min 0 min 0 W/m 3,2 km/h (1 Bft) 95,74 %
20.05.2023 00:56 13,8 C 12,8 C 9,4 C 68 % 1023,5 hPa 0,0 l/m 0 min 0 min 0 W/m 3,2 km/h (1 Bft) 97,83 %
20.05.2023 00:58 13,7 C 12,8 C 9,4 C 68 % 1023,5 hPa 0,0 l/m 0 min 0 min 0 W/m 3,2 km/h (1 Bft) 95,74 %
20.05.2023 01:00 13,7 C 12,8 C 9,4 C 68 % 1023,4 hPa 0,0 l/m 0 min 0 min 0 W/m 9,7 km/h (2 Bft) 97,87 %
20.05.2023 01:02 13,7 C 12,8 C 9,4 C 68 % 1023,4 hPa 0,0 l/m 0 min 0 min 0 W/m 3,2 km/h (1 Bft) 97,87 %
20.05.2023 01:04 13,7 C 12,8 C 9,4 C 68 % 1023,3 hPa 0,0 l/m 0 min 0 min 0 W/m 6,4 km/h (2 Bft) 97,92 %
20.05.2023 01:06 13,7 C 12,8 C 8,9 C 69 % 1023,3 hPa 0,0 l/m 0 min 0 min 0 W/m 3,2 km/h (1 Bft) 97,87 %
20.05.2023 01:08 13,7 C 12,2 C 8,9 C 69 % 1023,4 hPa 0,0 l/m 0 min 0 min 0 W/m 3,2 km/h (1 Bft) 94,29 %
20.05.2023 01:10 13,6 C 12,2 C 8,9 C 69 % 1023,4 hPa 0,0 l/m 0 min 0 min 0 W/m 3,2 km/h (1 Bft) 97,87 %
20.05.2023 01:12 13,6 C 12,2 C 8,9 C 69 % 1023,3 hPa 0,0 l/m 0 min 0 min 0 W/m 3,2 km/h (1 Bft) 97,83 %
20.05.2023 01:14 13,6 C 12,2 C 8,9 C 69 % 1023,3 hPa 0,0 l/m 0 min 0 min 0 W/m 6,4 km/h (2 Bft) 97,87 %
20.05.2023 01:16 13,5 C 12,2 C 8,9 C 69 % 1023,3 hPa 0,0 l/m 0 min 0 min 0 W/m 3,2 km/h (1 Bft) 95,74 %
20.05.2023 01:18 13,5 C 12,2 C 8,9 C 70 % 1023,4 hPa 0,0 l/m 0 min 0 min 0 W/m 6,4 km/h (2 Bft) 97,87 %
20.05.2023 01:20 13,5 C 12,2 C 8,9 C 69 % 1023,3 hPa 0,0 l/m 0 min 0 min 0 W/m 3,2 km/h (1 Bft) 93,62 %
20.05.2023 01:22 13,4 C 12,2 C 8,9 C 70 % 1023,4 hPa 0,0 l/m 0 min 0 min 0 W/m 3,2 km/h (1 Bft) 93,62 %
20.05.2023 01:24 13,4 C 12,2 C 8,9 C 70 % 1023,4 hPa 0,0 l/m 0 min 0 min 0 W/m 3,2 km/h (1 Bft) 97,87 %
20.05.2023 01:26 13,4 C 12,2 C 8,9 C 70 % 1023,4 hPa 0,0 l/m 0 min 0 min 0 W/m 3,2 km/h (1 Bft) 95,65 %
20.05.2023 01:28 13,3 C 12,2 C 8,9 C 70 % 1023,4 hPa 0,0 l/m 0 min 0 min 0 W/m 3,2 km/h (1 Bft) 97,87 %
20.05.2023 01:30 13,3 C 12,2 C 8,9 C 70 % 1023,4 hPa 0,0 l/m 0 min 0 min 0 W/m 3,2 km/h (1 Bft) 98,21 %
20.05.2023 01:32 13,3 C 12,2 C 8,9 C 70 % 1023,3 hPa 0,0 l/m 0 min 0 min 0 W/m 3,2 km/h (1 Bft) 95,65 %
20.05.2023 01:34 13,3 C 12,2 C 8,9 C 71 % 1023,3 hPa 0,0 l/m 0 min 0 min 0 W/m 3,2 km/h (1 Bft) 98,00 %
20.05.2023 01:36 13,2 C 12,2 C 8,9 C 71 % 1023,3 hPa 0,0 l/m 0 min 0 min 0 W/m 3,2 km/h (1 Bft) 95,74 %
20.05.2023 01:38 13,2 C 12,2 C 8,9 C 71 % 1023,3 hPa 0,0 l/m 0 min 0 min 0 W/m 6,4 km/h (2 Bft) 97,22 %
20.05.2023 01:40 13,2 C 12,2 C 8,9 C 71 % 1023,2 hPa 0,0 l/m 0 min 0 min 0 W/m 6,4 km/h (2 Bft) 93,48 %
20.05.2023 01:42 13,2 C 12,2 C 8,9 C 70 % 1023,3 hPa 0,0 l/m 0 min 0 min 0 W/m 3,2 km/h (1 Bft) 97,87 %
20.05.2023 01:44 13,2 C 12,2 C 8,9 C 71 % 1023,3 hPa 0,0 l/m 0 min 0 min 0 W/m 3,2 km/h (1 Bft) 97,87 %
20.05.2023 01:46 13,1 C 12,2 C 8,9 C 71 % 1023,3 hPa 0,0 l/m 0 min 0 min 0 W/m 6,4 km/h (2 Bft) 100,00 %
20.05.2023 01:48 13,1 C 12,2 C 8,9 C 71 % 1023,3 hPa 0,0 l/m 0 min 0 min 0 W/m 3,2 km/h (1 Bft) 100,00 %
20.05.2023 01:50 13,1 C 12,2 C 8,9 C 71 % 1023,3 hPa 0,0 l/m 0 min 0 min 0 W/m 3,2 km/h (1 Bft) 97,87 %
20.05.2023 01:52 13,1 C 12,2 C 8,9 C 71 % 1023,3 hPa 0,0 l/m 0 min 0 min 0 W/m 0,0 km/h (0 Bft) 96,43 %
20.05.2023 01:54 13,1 C 11,7 C 8,3 C 71 % 1023,3 hPa 0,0 l/m 0 min 0 min 0 W/m 0,0 km/h (0 Bft) 100,00 %
20.05.2023 01:56 13,0 C 11,7 C 8,3 C 72 % 1023,2 hPa 0,0 l/m 0 min 0 min 0 W/m 6,4 km/h (2 Bft) 97,87 %
20.05.2023 01:58 12,9 C 11,7 C 8,3 C 72 % 1023,2 hPa 0,0 l/m 0 min 0 min 0 W/m 3,2 km/h (1 Bft) 100,00 %
20.05.2023 02:00 12,9 C 11,7 C 8,3 C 72 % 1023,3 hPa 0,0 l/m 0 min 0 min 0 W/m 3,2 km/h (1 Bft) 97,87 %
20.05.2023 02:02 12,9 C 11,7 C 8,3 C 72 % 1023,2 hPa 0,0 l/m 0 min 0 min 0 W/m 3,2 km/h (1 Bft) 95,92 %
20.05.2023 02:04 12,9 C 11,7 C 8,3 C 72 % 1023,3 hPa 0,0 l/m 0 min 0 min 0 W/m 3,2 km/h (1 Bft) 93,88 %
20.05.2023 02:06 12,8 C 11,7 C 8,3 C 72 % 1023,3 hPa 0,0 l/m 0 min 0 min 0 W/m 3,2 km/h (1 Bft) 97,87 %
20.05.2023 02:08 12,8 C 11,7 C 8,3 C 72 % 1023,2 hPa 0,0 l/m 0 min 0 min 0 W/m 0,0 km/h (0 Bft) 95,74 %
20.05.2023 02:10 12,8 C 11,7 C 8,3 C 72 % 1023,3 hPa 0,0 l/m 0 min 0 min 0 W/m 0,0 km/h (0 Bft) 95,65 %
20.05.2023 02:14 12,7 C 11,7 C 8,3 C 72 % 1023,2 hPa 0,0 l/m 0 min 0 min 0 W/m 0,0 km/h (0 Bft) 100,00 %
20.05.2023 02:16 12,7 C 11,7 C 8,3 C 72 % 1023,2 hPa 0,0 l/m 0 min 0 min 0 W/m 3,2 km/h (1 Bft) 95,74 %
20.05.2023 02:18 12,7 C 11,7 C 8,3 C 73 % 1023,2 hPa 0,0 l/m 0 min 0 min 0 W/m 3,2 km/h (1 Bft) 95,74 %
20.05.2023 02:20 12,6 C 11,7 C 8,3 C 73 % 1023,3 hPa 0,0 l/m 0 min 0 min 0 W/m 6,4 km/h (2 Bft) 95,74 %
20.05.2023 02:22 12,6 C 11,7 C 8,3 C 73 % 1023,3 hPa 0,0 l/m 0 min 0 min 0 W/m 6,4 km/h (2 Bft) 93,62 %
20.05.2023 02:24 12,6 C 11,7 C 8,3 C 73 % 1023,3 hPa 0,0 l/m 0 min 0 min 0 W/m 6,4 km/h (2 Bft) 95,74 %
20.05.2023 02:26 12,6 C 11,7 C 8,3 C 73 % 1023,3 hPa 0,0 l/m 0 min 0 min 0 W/m 0,0 km/h (0 Bft) 95,65 %
20.05.2023 02:28 12,6 C 11,7 C 8,3 C 73 % 1023,3 hPa 0,0 l/m 0 min 0 min 0 W/m 9,7 km/h (2 Bft) 97,87 %
20.05.2023 02:30 12,6 C 11,7 C 8,3 C 73 % 1023,3 hPa 0,0 l/m 0 min 0 min 0 W/m 6,4 km/h (2 Bft) 97,87 %
20.05.2023 02:32 12,5 C 11,7 C 8,3 C 73 % 1023,3 hPa 0,0 l/m 0 min 0 min 0 W/m 6,4 km/h (2 Bft) 95,74 %
20.05.2023 02:34 12,5 C 11,7 C 8,3 C 73 % 1023,3 hPa 0,0 l/m 0 min 0 min 0 W/m 9,7 km/h (2 Bft) 97,87 %
20.05.2023 02:36 12,5 C 11,7 C 8,3 C 73 % 1023,3 hPa 0,0 l/m 0 min 0 min 0 W/m 6,4 km/h (2 Bft) 98,08 %
20.05.2023 02:38 12,5 C 11,7 C 8,3 C 73 % 1023,3 hPa 0,0 l/m 0 min 0 min 0 W/m 6,4 km/h (2 Bft) 95,74 %
20.05.2023 02:40 12,5 C 11,7 C 8,3 C 73 % 1023,3 hPa 0,0 l/m 0 min 0 min 0 W/m 3,2 km/h (1 Bft) 95,74 %
20.05.2023 02:42 12,5 C 11,7 C 8,3 C 73 % 1023,3 hPa 0,0 l/m 0 min 0 min 0 W/m 6,4 km/h (2 Bft) 97,87 %
20.05.2023 02:44 12,5 C 11,7 C 8,3 C 73 % 1023,3 hPa 0,0 l/m 0 min 0 min 0 W/m 3,2 km/h (1 Bft) 93,62 %
20.05.2023 02:46 12,4 C 11,7 C 8,3 C 73 % 1023,3 hPa 0,0 l/m 0 min 0 min 0 W/m 3,2 km/h (1 Bft) 52,63 %
20.05.2023 02:48 12,4 C 11,7 C 8,3 C 73 % 1023,3 hPa 0,0 l/m 0 min 0 min 0 W/m 3,2 km/h (1 Bft) 92,68 %
20.05.2023 02:50 12,4 C 11,7 C 7,8 C 73 % 1023,2 hPa 0,0 l/m 0 min 0 min 0 W/m 3,2 km/h (1 Bft) 95,74 %
20.05.2023 02:52 12,4 C 11,7 C 7,8 C 73 % 1023,2 hPa 0,0 l/m 0 min 0 min 0 W/m 3,2 km/h (1 Bft) 97,87 %
20.05.2023 02:54 12,4 C 11,1 C 7,8 C 73 % 1023,2 hPa 0,0 l/m 0 min 0 min 0 W/m 3,2 km/h (1 Bft) 97,83 %
20.05.2023 02:56 12,3 C 11,1 C 7,8 C 73 % 1023,2 hPa 0,0 l/m 0 min 0 min 0 W/m 3,2 km/h (1 Bft) 97,87 %
20.05.2023 02:58 12,3 C 11,1 C 7,8 C 74 % 1023,2 hPa 0,0 l/m 0 min 0 min 0 W/m 3,2 km/h (1 Bft) 95,74 %
20.05.2023 03:00 12,3 C 11,1 C 7,8 C 74 % 1023,2 hPa 0,0 l/m 0 min 0 min 0 W/m 6,4 km/h (2 Bft) 97,87 %
20.05.2023 03:02 12,2 C 11,1 C 7,8 C 74 % 1023,2 hPa 0,0 l/m 0 min 0 min 0 W/m 3,2 km/h (1 Bft) 95,74 %
20.05.2023 03:04 12,2 C 11,1 C 7,8 C 74 % 1023,2 hPa 0,0 l/m 0 min 0 min 0 W/m 3,2 km/h (1 Bft) 100,00 %
20.05.2023 03:06 12,2 C 11,1 C 7,8 C 74 % 1023,2 hPa 0,0 l/m 0 min 0 min 0 W/m 6,4 km/h (2 Bft) 100,00 %
20.05.2023 03:08 12,2 C 11,1 C 7,8 C 74 % 1023,2 hPa 0,0 l/m 0 min 0 min 0 W/m 0,0 km/h (0 Bft) 100,00 %
20.05.2023 03:10 12,1 C 11,1 C 7,8 C 74 % 1023,2 hPa 0,0 l/m 0 min 0 min 0 W/m 3,2 km/h (1 Bft) 97,87 %
20.05.2023 03:12 12,1 C 11,1 C 7,8 C 74 % 1023,2 hPa 0,0 l/m 0 min 0 min 0 W/m 6,4 km/h (2 Bft) 97,87 %
20.05.2023 03:14 12,1 C 11,1 C 7,8 C 74 % 1023,2 hPa 0,0 l/m 0 min 0 min 0 W/m 6,4 km/h (2 Bft) 97,87 %
20.05.2023 03:16 12,1 C 10,6 C 7,8 C 75 % 1023,2 hPa 0,0 l/m 0 min 0 min 0 W/m 0,0 km/h (0 Bft) 100,00 %
20.05.2023 03:18 12,0 C 10,6 C 7,2 C 75 % 1023,2 hPa 0,0 l/m 0 min 0 min 0 W/m 0,0 km/h (0 Bft) 100,00 %
20.05.2023 03:20 12,0 C 10,6 C 7,2 C 75 % 1023,1 hPa 0,0 l/m 0 min 0 min 0 W/m 3,2 km/h (1 Bft) 100,00 %
20.05.2023 03:22 11,9 C 10,6 C 7,2 C 75 % 1023,2 hPa 0,0 l/m 0 min 0 min 0 W/m 3,2 km/h (1 Bft) 100,00 %
20.05.2023 03:24 11,9 C 10,6 C 7,2 C 75 % 1023,2 hPa 0,0 l/m 0 min 0 min 0 W/m 3,2 km/h (1 Bft) 100,00 %
20.05.2023 03:26 11,8 C 10,6 C 7,2 C 75 % 1023,2 hPa 0,0 l/m 0 min 0 min 0 W/m 3,2 km/h (1 Bft) 100,00 %
20.05.2023 03:28 11,8 C 10,6 C 7,2 C 76 % 1023,2 hPa 0,0 l/m 0 min 0 min 0 W/m 3,2 km/h (1 Bft) 97,87 %
20.05.2023 03:30 11,8 C 10,6 C 7,2 C 76 % 1023,2 hPa 0,0 l/m 0 min 0 min 0 W/m 3,2 km/h (1 Bft) 97,83 %
20.05.2023 03:32 11,8 C 10,6 C 7,2 C 76 % 1023,1 hPa 0,0 l/m 0 min 0 min 0 W/m 3,2 km/h (1 Bft) 97,87 %
20.05.2023 03:34 11,7 C 10,6 C 7,2 C 76 % 1023,2 hPa 0,0 l/m 0 min 0 min 0 W/m 3,2 km/h (1 Bft) 100,00 %
20.05.2023 03:36 11,7 C 10,6 C 7,2 C 76 % 1023,2 hPa 0,0 l/m 0 min 0 min 0 W/m 3,2 km/h (1 Bft) 97,87 %
20.05.2023 03:38 11,7 C 10,6 C 7,2 C 76 % 1023,2 hPa 0,0 l/m 0 min 0 min 0 W/m 6,4 km/h (2 Bft) 100,00 %
20.05.2023 03:40 11,7 C 10,6 C 7,2 C 76 % 1023,1 hPa 0,0 l/m 0 min 0 min 0 W/m 3,2 km/h (1 Bft) 97,87 %
20.05.2023 03:42 11,7 C 10,6 C 7,2 C 76 % 1023,1 hPa 0,0 l/m 0 min 0 min 0 W/m 3,2 km/h (1 Bft) 95,74 %
20.05.2023 03:44 11,6 C 10,6 C 7,2 C 76 % 1023,1 hPa 0,0 l/m 0 min 0 min 0 W/m 3,2 km/h (1 Bft) 95,65 %
20.05.2023 03:46 11,6 C 10,6 C 7,2 C 76 % 1023,1 hPa 0,0 l/m 0 min 0 min 0 W/m 3,2 km/h (1 Bft) 97,87 %
20.05.2023 03:48 11,6 C 10,6 C 7,2 C 76 % 1023,1 hPa 0,0 l/m 0 min 0 min 0 W/m 3,2 km/h (1 Bft) 97,87 %
20.05.2023 03:50 11,6 C 10,6 C 7,2 C 76 % 1023,0 hPa 0,0 l/m 0 min 0 min 0 W/m 3,2 km/h (1 Bft) 97,87 %
20.05.2023 03:52 11,6 C 10,6 C 7,2 C 76 % 1023,1 hPa 0,0 l/m 0 min 0 min 0 W/m 6,4 km/h (2 Bft) 97,87 %
20.05.2023 03:54 11,6 C 10,6 C 7,2 C 76 % 1023,1 hPa 0,0 l/m 0 min 0 min 0 W/m 3,2 km/h (1 Bft) 97,87 %
20.05.2023 03:56 11,6 C 10,6 C 7,2 C 76 % 1023,1 hPa 0,0 l/m 0 min 0 min 0 W/m 3,2 km/h (1 Bft) 97,87 %
20.05.2023 03:58 11,6 C 10,6 C 7,2 C 76 % 1023,0 hPa 0,0 l/m 0 min 0 min 0 W/m 3,2 km/h (1 Bft) 95,65 %
20.05.2023 04:00 11,6 C 10,6 C 7,2 C 76 % 1023,0 hPa 0,0 l/m 0 min 0 min 0 W/m 3,2 km/h (1 Bft) 97,87 %
20.05.2023 04:02 11,6 C 10,6 C 7,2 C 76 % 1023,0 hPa 0,0 l/m 0 min 0 min 0 W/m 3,2 km/h (1 Bft) 93,62 %
20.05.2023 04:04 11,6 C 10,6 C 7,2 C 76 % 1023,0 hPa 0,0 l/m 0 min 0 min 0 W/m 0,0 km/h (0 Bft) 97,87 %
20.05.2023 04:06 11,6 C 10,6 C 7,2 C 76 % 1023,0 hPa 0,0 l/m 0 min 0 min 0 W/m 3,2 km/h (1 Bft) 98,31 %
20.05.2023 04:08 11,6 C 10,6 C 7,2 C 76 % 1023,0 hPa 0,0 l/m 0 min 0 min 0 W/m 3,2 km/h (1 Bft) 100,00 %
20.05.2023 04:10 11,6 C 10,6 C 7,2 C 77 % 1023,0 hPa 0,0 l/m 0 min 0 min 0 W/m 6,4 km/h (2 Bft) 100,00 %
20.05.2023 04:12 11,6 C 10,6 C 7,2 C 77 % 1023,0 hPa 0,0 l/m 0 min 0 min 0 W/m 3,2 km/h (1 Bft) 100,00 %
20.05.2023 04:14 11,6 C 10,6 C 7,2 C 76 % 1023,0 hPa 0,0 l/m 0 min 0 min 0 W/m 6,4 km/h (2 Bft) 98,00 %
20.05.2023 04:16 11,6 C 10,6 C 7,2 C 76 % 1023,0 hPa 0,0 l/m 0 min 0 min 0 W/m 6,4 km/h (2 Bft) 97,92 %
20.05.2023 04:18 11,6 C 10,6 C 7,2 C 76 % 1023,0 hPa 0,0 l/m 0 min 0 min 0 W/m 6,4 km/h (2 Bft) 95,74 %
20.05.2023 04:20 11,6 C 10,6 C 7,2 C 76 % 1023,0 hPa 0,0 l/m 0 min 0 min 0 W/m 3,2 km/h (1 Bft) 97,83 %
20.05.2023 04:22 11,6 C 10,6 C 7,2 C 76 % 1022,9 hPa 0,0 l/m 0 min 0 min 0 W/m 3,2 km/h (1 Bft) 94,44 %
20.05.2023 04:24 11,6 C 10,6 C 7,2 C 76 % 1023,0 hPa 0,0 l/m 0 min 0 min 0 W/m 3,2 km/h (1 Bft) 96,15 %
20.05.2023 04:26 11,6 C 10,6 C 7,2 C 76 % 1023,0 hPa 0,0 l/m 0 min 0 min 0 W/m 3,2 km/h (1 Bft) 97,87 %
20.05.2023 04:28 11,6 C 10,6 C 7,2 C 76 % 1023,0 hPa 0,0 l/m 0 min 0 min 0 W/m 3,2 km/h (1 Bft) 95,74 %
20.05.2023 04:30 11,6 C 10,6 C 7,2 C 77 % 1023,0 hPa 0,0 l/m 0 min 0 min 0 W/m 3,2 km/h (1 Bft) 95,74 %
20.05.2023 04:32 11,6 C 10,6 C 7,2 C 77 % 1023,0 hPa 0,0 l/m 0 min 0 min 0 W/m 3,2 km/h (1 Bft) 95,74 %
20.05.2023 04:34 11,6 C 10,6 C 7,2 C 77 % 1023,0 hPa 0,0 l/m 0 min 0 min 0 W/m 3,2 km/h (1 Bft) 97,87 %
20.05.2023 04:36 11,5 C 10,6 C 7,2 C 77 % 1023,0 hPa 0,0 l/m 0 min 0 min 0 W/m 3,2 km/h (1 Bft) 97,87 %
20.05.2023 04:38 11,5 C 10,6 C 7,2 C 77 % 1023,0 hPa 0,0 l/m 0 min 0 min 0 W/m 3,2 km/h (1 Bft) 95,92 %
20.05.2023 04:40 11,5 C 10,6 C 7,2 C 77 % 1023,0 hPa 0,0 l/m 0 min 0 min 0 W/m 3,2 km/h (1 Bft) 95,74 %
20.05.2023 04:42 11,4 C 10,6 C 7,2 C 77 % 1023,0 hPa 0,0 l/m 0 min 0 min 0 W/m 3,2 km/h (1 Bft) 91,49 %
20.05.2023 04:44 11,4 C 10,6 C 7,2 C 77 % 1023,0 hPa 0,0 l/m 0 min 0 min 0 W/m 3,2 km/h (1 Bft) 95,74 %
20.05.2023 04:46 11,4 C 10,6 C 7,2 C 77 % 1022,9 hPa 0,0 l/m 0 min 0 min 0 W/m 3,2 km/h (1 Bft) 91,49 %
20.05.2023 04:48 11,4 C 10,6 C 7,2 C 77 % 1022,9 hPa 0,0 l/m 0 min 0 min 0 W/m 3,2 km/h (1 Bft) 95,65 %
20.05.2023 04:50 11,4 C 10,6 C 7,2 C 77 % 1022,9 hPa 0,0 l/m 0 min 0 min 0 W/m 3,2 km/h (1 Bft) 95,74 %
20.05.2023 04:52 11,4 C 10,6 C 7,2 C 77 % 1022,9 hPa 0,0 l/m 0 min 0 min 0 W/m 3,2 km/h (1 Bft) 93,62 %
20.05.2023 04:54 11,4 C 10,6 C 7,2 C 77 % 1022,8 hPa 0,0 l/m 0 min 0 min 0 W/m 3,2 km/h (1 Bft) 95,74 %
20.05.2023 04:56 11,3 C 10,6 C 7,2 C 77 % 1022,8 hPa 0,0 l/m 0 min 0 min 0 W/m 3,2 km/h (1 Bft) 95,74 %
20.05.2023 04:58 11,3 C 10,6 C 7,2 C 77 % 1022,8 hPa 0,0 l/m 0 min 0 min 0 W/m 3,2 km/h (1 Bft) 95,74 %
20.05.2023 05:00 11,3 C 10,6 C 7,2 C 77 % 1022,8 hPa 0,0 l/m 0 min 0 min 0 W/m 6,4 km/h (2 Bft) 93,62 %
20.05.2023 05:02 11,3 C 10,6 C 7,2 C 78 % 1022,8 hPa 0,0 l/m 0 min 0 min 0 W/m 6,4 km/h (2 Bft) 95,65 %
20.05.2023 05:04 11,3 C 10,6 C 7,2 C 78 % 1022,7 hPa 0,0 l/m 0 min 0 min 0 W/m 6,4 km/h (2 Bft) 93,62 %
20.05.2023 05:06 11,3 C 10,6 C 7,2 C 78 % 1022,7 hPa 0,0 l/m 0 min 0 min 0 W/m 3,2 km/h (1 Bft) 93,75 %
20.05.2023 05:08 11,3 C 10,6 C 7,2 C 78 % 1022,7 hPa 0,0 l/m 0 min 0 min 0 W/m 9,7 km/h (2 Bft) 95,74 %
20.05.2023 05:10 11,3 C 10,6 C 7,2 C 78 % 1022,8 hPa 0,0 l/m 0 min 0 min 0 W/m 3,2 km/h (1 Bft) 93,62 %
20.05.2023 05:12 11,3 C 10,6 C 7,2 C 78 % 1022,7 hPa 0,0 l/m 0 min 0 min 0 W/m 6,4 km/h (2 Bft) 93,62 %
20.05.2023 05:14 11,3 C 10,6 C 7,2 C 78 % 1022,7 hPa 0,0 l/m 0 min 0 min 0 W/m 6,4 km/h (2 Bft) 95,65 %
20.05.2023 05:16 11,3 C 10,6 C 7,2 C 78 % 1022,7 hPa 0,0 l/m 0 min 0 min 0 W/m 3,2 km/h (1 Bft) 100,00 %
20.05.2023 05:18 11,3 C 10,6 C 7,2 C 78 % 1022,8 hPa 0,0 l/m 0 min 0 min 0 W/m 6,4 km/h (2 Bft) 97,87 %
20.05.2023 05:20 11,3 C 10,6 C 7,2 C 78 % 1022,8 hPa 0,0 l/m 0 min 0 min 0 W/m 3,2 km/h (1 Bft) 97,87 %
20.05.2023 05:22 11,3 C 10,6 C 7,2 C 78 % 1022,8 hPa 0,0 l/m 0 min 0 min 0 W/m 3,2 km/h (1 Bft) 97,87 %
20.05.2023 05:24 11,3 C 10,6 C 7,2 C 78 % 1022,8 hPa 0,0 l/m 0 min 0 min 0 W/m 6,4 km/h (2 Bft) 97,87 %
20.05.2023 05:26 11,2 C 10,6 C 7,2 C 78 % 1022,8 hPa 0,0 l/m 0 min 0 min 0 W/m 6,4 km/h (2 Bft) 97,87 %
20.05.2023 05:28 11,2 C 10,6 C 7,2 C 78 % 1022,8 hPa 0,0 l/m 0 min 0 min 0 W/m 3,2 km/h (1 Bft) 97,83 %
20.05.2023 05:30 11,2 C 10,0 C 7,2 C 78 % 1022,8 hPa 0,0 l/m 0 min 0 min 0 W/m 3,2 km/h (1 Bft) 97,87 %
20.05.2023 05:32 11,2 C 10,0 C 7,2 C 78 % 1022,8 hPa 0,0 l/m 0 min 0 min 0 W/m 6,4 km/h (2 Bft) 95,74 %
20.05.2023 05:34 11,2 C 10,0 C 6,7 C 78 % 1022,8 hPa 0,0 l/m 0 min 0 min 0 W/m 3,2 km/h (1 Bft) 97,87 %
20.05.2023 05:36 11,2 C 10,0 C 6,7 C 79 % 1022,8 hPa 0,0 l/m 0 min 0 min 0 W/m 6,4 km/h (2 Bft) 97,87 %
20.05.2023 05:38 11,2 C 10,0 C 6,7 C 79 % 1022,8 hPa 0,0 l/m 0 min 0 min 0 W/m 6,4 km/h (2 Bft) 97,87 %
20.05.2023 05:40 11,1 C 10,0 C 7,2 C 79 % 1022,7 hPa 0,0 l/m 0 min 0 min 0 W/m 3,2 km/h (1 Bft) 95,74 %
20.05.2023 05:42 11,1 C 10,0 C 6,7 C 79 % 1022,7 hPa 0,0 l/m 0 min 0 min 0 W/m 9,7 km/h (2 Bft) 97,83 %
20.05.2023 05:44 11,1 C 10,0 C 7,2 C 79 % 1022,7 hPa 0,0 l/m 0 min 0 min 0 W/m 9,7 km/h (2 Bft) 97,87 %
20.05.2023 05:46 11,1 C 10,0 C 6,7 C 79 % 1022,7 hPa 0,0 l/m 0 min 0 min 0 W/m 6,4 km/h (2 Bft) 97,87 %
20.05.2023 05:48 11,1 C 10,0 C 6,7 C 79 % 1022,7 hPa 0,0 l/m 0 min 0 min 1 W/m 6,4 km/h (2 Bft) 97,87 %
20.05.2023 05:50 11,1 C 10,0 C 6,7 C 79 % 1022,6 hPa 0,0 l/m 0 min 0 min 5 W/m 12,9 km/h (3 Bft) 100,00 %
20.05.2023 05:52 11,1 C 10,6 C 6,7 C 79 % 1022,6 hPa 0,0 l/m 0 min 0 min 5 W/m 6,4 km/h (2 Bft) 100,00 %
20.05.2023 05:54 11,1 C 10,6 C 7,2 C 79 % 1022,6 hPa 0,0 l/m 0 min 0 min 6 W/m 6,4 km/h (2 Bft) 100,00 %
20.05.2023 05:56 11,1 C 10,6 C 7,2 C 79 % 1022,6 hPa 0,0 l/m 0 min 0 min 7 W/m 9,7 km/h (2 Bft) 100,00 %
20.05.2023 05:58 11,1 C 10,6 C 7,2 C 79 % 1022,6 hPa 0,0 l/m 0 min 0 min 7 W/m 9,7 km/h (2 Bft) 100,00 %
20.05.2023 06:00 11,1 C 10,6 C 7,2 C 79 % 1022,6 hPa 0,0 l/m 0 min 0 min 7 W/m 9,7 km/h (2 Bft) 100,00 %
20.05.2023 06:02 11,2 C 10,6 C 7,2 C 79 % 1022,6 hPa 0,0 l/m 0 min 0 min 7 W/m 3,2 km/h (1 Bft) 100,00 %
20.05.2023 06:04 11,1 C 10,6 C 7,2 C 79 % 1022,6 hPa 0,0 l/m 0 min 0 min 9 W/m 6,4 km/h (2 Bft) 100,00 %
20.05.2023 06:08 11,2 C 10,6 C 7,2 C 79 % 1022,6 hPa 0,0 l/m 0 min 0 min 9 W/m 6,4 km/h (2 Bft) 98,98 %
20.05.2023 06:10 11,2 C 10,6 C 7,2 C 79 % 1022,6 hPa 0,0 l/m 0 min 0 min 9 W/m 3,2 km/h (1 Bft) 100,00 %
20.05.2023 06:12 11,2 C 10,6 C 7,2 C 79 % 1022,6 hPa 0,0 l/m 0 min 0 min 10 W/m 12,9 km/h (3 Bft) 100,00 %
20.05.2023 06:14 11,2 C 10,6 C 7,2 C 79 % 1022,6 hPa 0,0 l/m 0 min 0 min 11 W/m 12,9 km/h (3 Bft) 100,00 %
20.05.2023 06:16 11,2 C 10,6 C 7,2 C 79 % 1022,7 hPa 0,0 l/m 0 min 0 min 11 W/m 6,4 km/h (2 Bft) 100,00 %
20.05.2023 06:18 11,2 C 10,6 C 7,2 C 79 % 1022,6 hPa 0,0 l/m 0 min 0 min 12 W/m 6,4 km/h (2 Bft) 100,00 %
20.05.2023 06:20 11,2 C 10,6 C 7,2 C 79 % 1022,6 hPa 0,0 l/m 0 min 0 min 12 W/m 3,2 km/h (1 Bft) 100,00 %
20.05.2023 06:22 11,2 C 10,6 C 7,2 C 79 % 1022,6 hPa 0,0 l/m 0 min 0 min 13 W/m 6,4 km/h (2 Bft) 100,00 %
20.05.2023 06:24 11,2 C 10,6 C 7,2 C 79 % 1022,6 hPa 0,0 l/m 0 min 0 min 14 W/m 9,7 km/h (2 Bft) 100,00 %
20.05.2023 06:26 11,2 C 10,6 C 7,2 C 79 % 1022,7 hPa 0,0 l/m 0 min 0 min 15 W/m 6,4 km/h (2 Bft) 100,00 %
20.05.2023 06:28 11,3 C 10,6 C 7,2 C 79 % 1022,6 hPa 0,0 l/m 0 min 0 min 16 W/m 3,2 km/h (1 Bft) 65,96 %
20.05.2023 06:30 11,2 C 10,6 C 7,2 C 79 % 1022,6 hPa 0,0 l/m 0 min 0 min 17 W/m 6,4 km/h (2 Bft) 88,24 %
20.05.2023 06:32 11,2 C 10,6 C 7,2 C 79 % 1022,6 hPa 0,0 l/m 0 min 0 min 18 W/m 6,4 km/h (2 Bft) 100,00 %
20.05.2023 06:34 11,2 C 10,6 C 7,2 C 79 % 1022,6 hPa 0,0 l/m 0 min 0 min 19 W/m 6,4 km/h (2 Bft) 95,74 %
20.05.2023 06:36 11,3 C 10,6 C 7,2 C 80 % 1022,6 hPa 0,0 l/m 0 min 0 min 20 W/m 6,4 km/h (2 Bft) 100,00 %
20.05.2023 06:38 11,3 C 10,6 C 7,2 C 80 % 1022,6 hPa 0,0 l/m 0 min 0 min 21 W/m 6,4 km/h (2 Bft) 97,87 %
20.05.2023 06:40 11,3 C 10,6 C 7,2 C 80 % 1022,5 hPa 0,0 l/m 0 min 0 min 22 W/m 12,9 km/h (3 Bft) 100,00 %
20.05.2023 06:42 11,3 C 10,6 C 7,2 C 80 % 1022,5 hPa 0,0 l/m 0 min 0 min 24 W/m 6,4 km/h (2 Bft) 97,87 %
20.05.2023 06:44 11,3 C 10,6 C 7,2 C 80 % 1022,5 hPa 0,0 l/m 0 min 0 min 26 W/m 6,4 km/h (2 Bft) 100,00 %
20.05.2023 06:46 11,3 C 10,6 C 7,2 C 80 % 1022,5 hPa 0,0 l/m 0 min 0 min 26 W/m 9,7 km/h (2 Bft) 97,83 %
20.05.2023 06:48 11,3 C 10,6 C 7,2 C 80 % 1022,5 hPa 0,0 l/m 0 min 0 min 28 W/m 16,1 km/h (3 Bft) 100,00 %
20.05.2023 06:50 11,3 C 10,6 C 7,2 C 80 % 1022,4 hPa 0,0 l/m 0 min 0 min 29 W/m 12,9 km/h (3 Bft) 97,87 %
20.05.2023 06:52 11,4 C 10,6 C 7,2 C 80 % 1022,5 hPa 0,0 l/m 0 min 0 min 30 W/m 3,2 km/h (1 Bft) 97,87 %
20.05.2023 06:54 11,4 C 10,6 C 7,2 C 80 % 1022,5 hPa 0,0 l/m 0 min 0 min 32 W/m 6,4 km/h (2 Bft) 100,00 %
20.05.2023 06:56 11,4 C 11,1 C 7,2 C 80 % 1022,5 hPa 0,0 l/m 0 min 0 min 33 W/m 6,4 km/h (2 Bft) 97,87 %
20.05.2023 06:58 11,4 C 11,1 C 7,2 C 80 % 1022,5 hPa 0,0 l/m 0 min 0 min 34 W/m 6,4 km/h (2 Bft) 100,00 %
20.05.2023 07:00 11,4 C 11,1 C 7,2 C 80 % 1022,5 hPa 0,0 l/m 0 min 0 min 36 W/m 12,9 km/h (3 Bft) 97,87 %
20.05.2023 07:02 11,4 C 11,1 C 7,2 C 80 % 1022,5 hPa 0,0 l/m 0 min 0 min 37 W/m 6,4 km/h (2 Bft) 95,74 %
20.05.2023 07:04 11,5 C 11,1 C 7,2 C 80 % 1022,4 hPa 0,0 l/m 0 min 0 min 39 W/m 6,4 km/h (2 Bft) 97,87 %
20.05.2023 07:06 11,5 C 11,1 C 7,2 C 80 % 1022,4 hPa 0,0 l/m 0 min 0 min 40 W/m 3,2 km/h (1 Bft) 95,74 %
20.05.2023 07:08 11,6 C 11,1 C 7,2 C 81 % 1022,4 hPa 0,0 l/m 0 min 0 min 41 W/m 9,7 km/h (2 Bft) 95,74 %
20.05.2023 07:10 11,6 C 11,1 C 7,8 C 81 % 1022,4 hPa 0,0 l/m 0 min 0 min 43 W/m 12,9 km/h (3 Bft) 95,74 %
20.05.2023 07:12 11,6 C 11,1 C 7,8 C 81 % 1022,5 hPa 0,0 l/m 0 min 0 min 44 W/m 12,9 km/h (3 Bft) 95,65 %
20.05.2023 07:14 11,6 C 11,7 C 7,8 C 81 % 1022,5 hPa 0,0 l/m 0 min 0 min 45 W/m 9,7 km/h (2 Bft) 93,62 %
20.05.2023 07:16 11,7 C 11,7 C 7,8 C 81 % 1022,5 hPa 0,0 l/m 0 min 0 min 46 W/m 6,4 km/h (2 Bft) 95,74 %
20.05.2023 07:18 11,7 C 11,7 C 7,8 C 81 % 1022,5 hPa 0,0 l/m 0 min 0 min 47 W/m 12,9 km/h (3 Bft) 93,62 %
20.05.2023 07:20 11,8 C 11,7 C 7,8 C 80 % 1022,5 hPa 0,0 l/m 0 min 0 min 47 W/m 9,7 km/h (2 Bft) 93,62 %
20.05.2023 07:22 11,9 C 11,7 C 7,8 C 80 % 1022,5 hPa 0,0 l/m 0 min 0 min 49 W/m 6,4 km/h (2 Bft) 97,87 %
20.05.2023 07:24 11,9 C 11,7 C 7,8 C 80 % 1022,4 hPa 0,0 l/m 0 min 0 min 50 W/m 9,7 km/h (2 Bft) 95,65 %
20.05.2023 07:26 12,0 C 11,7 C 7,8 C 80 % 1022,4 hPa 0,0 l/m 0 min 0 min 51 W/m 16,1 km/h (3 Bft) 95,74 %
20.05.2023 07:28 12,1 C 11,7 C 8,3 C 80 % 1022,4 hPa 0,0 l/m 0 min 0 min 52 W/m 6,4 km/h (2 Bft) 95,74 %
20.05.2023 07:30 12,1 C 11,7 C 8,3 C 80 % 1022,4 hPa 0,0 l/m 0 min 0 min 53 W/m 19,3 km/h (3 Bft) 93,62 %
20.05.2023 07:32 12,2 C 12,2 C 8,3 C 79 % 1022,3 hPa 0,0 l/m 0 min 0 min 54 W/m 19,3 km/h (3 Bft) 95,74 %
20.05.2023 07:34 12,2 C 12,2 C 8,3 C 79 % 1022,4 hPa 0,0 l/m 0 min 0 min 54 W/m 12,9 km/h (3 Bft) 93,62 %
20.05.2023 07:36 12,3 C 12,2 C 8,3 C 79 % 1022,3 hPa 0,0 l/m 0 min 0 min 54 W/m 16,1 km/h (3 Bft) 95,65 %
20.05.2023 07:38 12,3 C 12,2 C 8,3 C 79 % 1022,4 hPa 0,0 l/m 0 min 0 min 54 W/m 22,5 km/h (4 Bft) 93,62 %
20.05.2023 07:40 12,4 C 12,2 C 8,3 C 78 % 1022,4 hPa 0,0 l/m 0 min 0 min 54 W/m 16,1 km/h (3 Bft) 95,74 %
20.05.2023 07:42 12,5 C 12,2 C 8,3 C 78 % 1022,4 hPa 0,0 l/m 0 min 0 min 54 W/m 16,1 km/h (3 Bft) 91,49 %
20.05.2023 07:44 12,6 C 12,2 C 8,3 C 78 % 1022,3 hPa 0,0 l/m 0 min 0 min 55 W/m 16,1 km/h (3 Bft) 97,22 %
20.05.2023 07:46 12,7 C 12,2 C 8,9 C 78 % 1022,4 hPa 0,0 l/m 0 min 0 min 54 W/m 16,1 km/h (3 Bft) 97,87 %
20.05.2023 07:48 12,7 C 12,2 C 8,9 C 78 % 1022,3 hPa 0,0 l/m 0 min 0 min 55 W/m 12,9 km/h (3 Bft) 97,87 %
20.05.2023 07:50 12,8 C 12,2 C 8,9 C 78 % 1022,3 hPa 0,0 l/m 0 min 0 min 69 W/m 9,7 km/h (2 Bft) 100,00 %
20.05.2023 07:52 12,8 C 12,8 C 8,9 C 78 % 1022,2 hPa 0,0 l/m 2 min 0 min 182 W/m 9,7 km/h (2 Bft) 97,83 %
20.05.2023 07:54 12,9 C 12,8 C 8,9 C 78 % 1022,2 hPa 0,0 l/m 2 min 0 min 264 W/m 19,3 km/h (3 Bft) 97,87 %
20.05.2023 07:56 12,9 C 12,8 C 8,9 C 78 % 1022,2 hPa 0,0 l/m 2 min 0 min 270 W/m 19,3 km/h (3 Bft) 95,74 %
20.05.2023 07:58 12,9 C 12,8 C 8,9 C 78 % 1022,2 hPa 0,0 l/m 2 min 0 min 276 W/m 12,9 km/h (3 Bft) 95,74 %
20.05.2023 08:00 13,1 C 12,8 C 8,9 C 78 % 1022,1 hPa 0,0 l/m 2 min 0 min 281 W/m 16,1 km/h (3 Bft) 95,74 %
20.05.2023 08:02 13,1 C 12,8 C 8,9 C 77 % 1022,1 hPa 0,0 l/m 2 min 0 min 287 W/m 22,5 km/h (4 Bft) 97,87 %
20.05.2023 08:04 13,2 C 12,8 C 8,9 C 77 % 1022,1 hPa 0,0 l/m 2 min 0 min 294 W/m 19,3 km/h (3 Bft) 95,74 %
20.05.2023 08:06 13,3 C 13,3 C 8,9 C 77 % 1022,2 hPa 0,0 l/m 2 min 0 min 281 W/m 22,5 km/h (4 Bft) 96,55 %
20.05.2023 08:08 13,3 C 13,9 C 9,4 C 77 % 1022,1 hPa 0,0 l/m 2 min 0 min 270 W/m 9,7 km/h (2 Bft) 97,14 %
20.05.2023 08:10 13,4 C 14,4 C 9,4 C 77 % 1022,1 hPa 0,0 l/m 2 min 0 min 243 W/m 16,1 km/h (3 Bft) 97,87 %
20.05.2023 08:12 13,6 C 14,4 C 9,4 C 76 % 1022,1 hPa 0,0 l/m 2 min 0 min 295 W/m 16,1 km/h (3 Bft) 97,87 %
20.05.2023 08:14 13,6 C 14,4 C 9,4 C 76 % 1022,2 hPa 0,0 l/m 2 min 0 min 322 W/m 22,5 km/h (4 Bft) 97,87 %
20.05.2023 08:16 13,8 C 16,1 C 9,4 C 76 % 1022,1 hPa 0,0 l/m 2 min 0 min 328 W/m 16,1 km/h (3 Bft) 100,00 %
20.05.2023 08:18 13,9 C 16,7 C 9,4 C 76 % 1022,2 hPa 0,0 l/m 2 min 0 min 331 W/m 12,9 km/h (3 Bft) 97,87 %
20.05.2023 08:20 14,0 C 17,2 C 9,4 C 75 % 1022,1 hPa 0,0 l/m 2 min 0 min 335 W/m 12,9 km/h (3 Bft) 100,00 %
20.05.2023 08:22 14,2 C 17,8 C 9,4 C 75 % 1022,1 hPa 0,0 l/m 2 min 0 min 337 W/m 12,9 km/h (3 Bft) 100,00 %
20.05.2023 08:24 14,3 C 18,3 C 10,0 C 74 % 1022,1 hPa 0,0 l/m 2 min 0 min 334 W/m 12,9 km/h (3 Bft) 95,74 %
20.05.2023 08:26 14,3 C 18,9 C 10,0 C 74 % 1022,1 hPa 0,0 l/m 2 min 0 min 343 W/m 12,9 km/h (3 Bft) 97,87 %
20.05.2023 08:28 14,4 C 18,9 C 10,0 C 74 % 1022,2 hPa 0,0 l/m 2 min 0 min 352 W/m 29,0 km/h (5 Bft) 97,87 %
20.05.2023 08:30 14,5 C 18,9 C 10,0 C 73 % 1022,1 hPa 0,0 l/m 2 min 0 min 356 W/m 22,5 km/h (4 Bft) 97,87 %
20.05.2023 08:32 14,6 C 19,4 C 10,6 C 74 % 1022,1 hPa 0,0 l/m 2 min 0 min 365 W/m 19,3 km/h (3 Bft) 100,00 %
20.05.2023 08:34 14,7 C 19,4 C 10,6 C 73 % 1022,0 hPa 0,0 l/m 2 min 0 min 371 W/m 16,1 km/h (3 Bft) 97,62 %
20.05.2023 08:36 14,9 C 20,0 C 10,6 C 73 % 1022,0 hPa 0,0 l/m 2 min 0 min 375 W/m 16,1 km/h (3 Bft) 100,00 %
20.05.2023 08:38 15,0 C 20,0 C 11,1 C 72 % 1022,0 hPa 0,0 l/m 2 min 0 min 378 W/m 19,3 km/h (3 Bft) 100,00 %
20.05.2023 08:40 15,1 C 20,6 C 11,1 C 72 % 1022,0 hPa 0,0 l/m 2 min 0 min 386 W/m 22,5 km/h (4 Bft) 97,87 %
20.05.2023 08:42 15,2 C 20,6 C 11,7 C 72 % 1022,0 hPa 0,0 l/m 2 min 0 min 395 W/m 12,9 km/h (3 Bft) 100,00 %
20.05.2023 08:44 15,3 C 21,1 C 11,7 C 72 % 1022,0 hPa 0,0 l/m 2 min 0 min 400 W/m 9,7 km/h (2 Bft) 97,87 %
20.05.2023 08:46 15,5 C 21,1 C 11,7 C 72 % 1022,0 hPa 0,0 l/m 2 min 0 min 406 W/m 12,9 km/h (3 Bft) 100,00 %
20.05.2023 08:48 15,6 C 21,7 C 12,2 C 72 % 1022,0 hPa 0,0 l/m 2 min 0 min 408 W/m 9,7 km/h (2 Bft) 100,00 %
20.05.2023 08:50 15,7 C 22,2 C 12,2 C 71 % 1022,0 hPa 0,0 l/m 2 min 0 min 415 W/m 16,1 km/h (3 Bft) 100,00 %
20.05.2023 08:52 15,8 C 22,2 C 12,2 C 71 % 1021,9 hPa 0,0 l/m 2 min 0 min 360 W/m 12,9 km/h (3 Bft) 100,00 %
20.05.2023 08:54 15,8 C 21,1 C 12,2 C 71 % 1021,9 hPa 0,0 l/m 2 min 0 min 308 W/m 9,7 km/h (2 Bft) 100,00 %
20.05.2023 08:56 15,9 C 20,0 C 12,2 C 70 % 1021,9 hPa 0,0 l/m 2 min 0 min 308 W/m 12,9 km/h (3 Bft) 100,00 %
20.05.2023 08:58 15,8 C 18,9 C 11,7 C 71 % 1021,8 hPa 0,0 l/m 0 min 0 min 202 W/m 9,7 km/h (2 Bft) 97,87 %
20.05.2023 09:00 15,8 C 18,3 C 11,7 C 70 % 1021,8 hPa 0,0 l/m 2 min 0 min 243 W/m 16,1 km/h (3 Bft) 100,00 %
20.05.2023 09:02 15,8 C 18,3 C 11,7 C 71 % 1021,8 hPa 0,0 l/m 0 min 0 min 237 W/m 9,7 km/h (2 Bft) 97,87 %
20.05.2023 09:04 15,7 C 18,9 C 11,7 C 71 % 1021,8 hPa 0,0 l/m 2 min 0 min 280 W/m 9,7 km/h (2 Bft) 95,83 %
20.05.2023 09:06 15,7 C 17,8 C 11,7 C 71 % 1021,8 hPa 0,0 l/m 2 min 0 min 270 W/m 16,1 km/h (3 Bft) 100,00 %
20.05.2023 09:08 15,7 C 17,2 C 11,7 C 70 % 1021,8 hPa 0,0 l/m 0 min 0 min 203 W/m 16,1 km/h (3 Bft) 100,00 %
20.05.2023 09:10 15,6 C 16,7 C 11,7 C 70 % 1021,8 hPa 0,0 l/m 0 min 0 min 224 W/m 16,1 km/h (3 Bft) 97,83 %
20.05.2023 09:12 15,5 C 16,7 C 11,1 C 71 % 1021,9 hPa 0,0 l/m 0 min 0 min 244 W/m 16,1 km/h (3 Bft) 97,87 %
20.05.2023 09:14 15,4 C 16,1 C 11,1 C 71 % 1021,8 hPa 0,0 l/m 2 min 0 min 256 W/m 16,1 km/h (3 Bft) 93,62 %
20.05.2023 09:16 15,3 C 16,1 C 11,1 C 71 % 1021,9 hPa 0,0 l/m 2 min 0 min 272 W/m 16,1 km/h (3 Bft) 97,87 %
20.05.2023 09:18 15,4 C 16,7 C 11,7 C 71 % 1021,9 hPa 0,0 l/m 2 min 0 min 314 W/m 16,1 km/h (3 Bft) 97,87 %
20.05.2023 09:20 15,4 C 16,7 C 11,7 C 71 % 1021,9 hPa 0,0 l/m 2 min 0 min 279 W/m 22,5 km/h (4 Bft) 97,87 %
20.05.2023 09:22 15,4 C 17,2 C 11,7 C 71 % 1021,9 hPa 0,0 l/m 2 min 0 min 320 W/m 19,3 km/h (3 Bft) 97,83 %
20.05.2023 09:24 15,4 C 17,8 C 12,2 C 72 % 1021,8 hPa 0,0 l/m 2 min 0 min 292 W/m 16,1 km/h (3 Bft) 97,87 %
20.05.2023 09:26 15,6 C 18,3 C 12,2 C 72 % 1021,7 hPa 0,0 l/m 2 min 0 min 368 W/m 22,5 km/h (4 Bft) 97,87 %
20.05.2023 09:28 15,7 C 19,4 C 12,8 C 72 % 1021,8 hPa 0,0 l/m 2 min 0 min 385 W/m 19,3 km/h (3 Bft) 97,87 %
20.05.2023 09:30 15,8 C 19,4 C 12,8 C 72 % 1021,7 hPa 0,0 l/m 2 min 0 min 532 W/m 12,9 km/h (3 Bft) 97,87 %
20.05.2023 09:32 15,9 C 20,0 C 13,3 C 71 % 1021,7 hPa 0,0 l/m 2 min 0 min 427 W/m 16,1 km/h (3 Bft) 97,87 %
20.05.2023 09:34 16,1 C 19,4 C 12,8 C 70 % 1021,8 hPa 0,0 l/m 2 min 0 min 381 W/m 16,1 km/h (3 Bft) 97,87 %
20.05.2023 09:36 16,1 C 19,4 C 13,3 C 70 % 1021,7 hPa 0,0 l/m 2 min 0 min 498 W/m 19,3 km/h (3 Bft) 95,65 %
20.05.2023 09:38 16,3 C 20,6 C 13,9 C 71 % 1021,7 hPa 0,0 l/m 2 min 0 min 650 W/m 12,9 km/h (3 Bft) 97,87 %
20.05.2023 09:40 16,6 C 21,7 C 14,4 C 71 % 1021,8 hPa 0,0 l/m 2 min 0 min 655 W/m 12,9 km/h (3 Bft) 97,87 %
20.05.2023 09:42 16,8 C 21,7 C 15,0 C 70 % 1021,7 hPa 0,0 l/m 2 min 0 min 642 W/m 12,9 km/h (3 Bft) 97,87 %
20.05.2023 09:44 16,9 C 21,7 C 15,0 C 69 % 1021,7 hPa 0,0 l/m 2 min 0 min 636 W/m 19,3 km/h (3 Bft) 97,87 %
20.05.2023 09:46 17,1 C 21,1 C 14,4 C 68 % 1021,7 hPa 0,0 l/m 2 min 0 min 586 W/m 19,3 km/h (3 Bft) 100,00 %
20.05.2023 09:48 17,1 C 20,0 C 13,9 C 68 % 1021,7 hPa 0,0 l/m 0 min 0 min 212 W/m 12,9 km/h (3 Bft) 97,87 %
20.05.2023 09:50 17,1 C 19,4 C 13,3 C 68 % 1021,7 hPa 0,0 l/m 0 min 0 min 248 W/m 9,7 km/h (2 Bft) 100,00 %
20.05.2023 09:52 17,1 C 19,4 C 13,3 C 68 % 1021,7 hPa 0,0 l/m 2 min 0 min 298 W/m 16,1 km/h (3 Bft) 100,00 %
20.05.2023 09:54 17,1 C 18,9 C 13,3 C 68 % 1021,8 hPa 0,0 l/m 2 min 0 min 325 W/m 19,3 km/h (3 Bft) 100,00 %
20.05.2023 09:56 16,9 C 18,3 C 13,3 C 68 % 1021,7 hPa 0,0 l/m 2 min 0 min 317 W/m 22,5 km/h (4 Bft) 100,00 %
20.05.2023 09:58 16,9 C 18,3 C 12,8 C 68 % 1021,8 hPa 0,0 l/m 2 min 0 min 317 W/m 19,3 km/h (3 Bft) 100,00 %
20.05.2023 10:00 16,8 C 17,8 C 12,8 C 68 % 1021,8 hPa 0,0 l/m 0 min 0 min 289 W/m 29,0 km/h (5 Bft) 100,00 %
20.05.2023 10:02 16,7 C 17,2 C 12,8 C 68 % 1021,8 hPa 0,0 l/m 0 min 0 min 267 W/m 22,5 km/h (4 Bft) 100,00 %
20.05.2023 10:04 16,6 C 17,2 C 12,8 C 68 % 1021,8 hPa 0,0 l/m 0 min 0 min 256 W/m 22,5 km/h (4 Bft) 100,00 %
20.05.2023 10:06 16,5 C 17,2 C 12,8 C 69 % 1021,8 hPa 0,0 l/m 0 min 0 min 266 W/m 16,1 km/h (3 Bft) 98,33 %
20.05.2023 10:08 16,5 C 17,2 C 12,8 C 69 % 1021,7 hPa 0,0 l/m 0 min 0 min 294 W/m 16,1 km/h (3 Bft) 97,22 %
20.05.2023 10:10 16,4 C 17,2 C 12,2 C 69 % 1021,7 hPa 0,0 l/m 2 min 0 min 320 W/m 19,3 km/h (3 Bft) 97,83 %
20.05.2023 10:12 16,4 C 17,2 C 12,2 C 70 % 1021,7 hPa 0,0 l/m 2 min 0 min 321 W/m 12,9 km/h (3 Bft) 97,87 %
20.05.2023 10:14 16,4 C 17,2 C 12,8 C 69 % 1021,7 hPa 0,0 l/m 0 min 0 min 312 W/m 16,1 km/h (3 Bft) 97,87 %
20.05.2023 10:16 16,4 C 17,2 C 12,8 C 69 % 1021,7 hPa 0,0 l/m 0 min 0 min 296 W/m 12,9 km/h (3 Bft) 97,83 %
20.05.2023 10:18 16,4 C 17,2 C 12,8 C 70 % 1021,6 hPa 0,0 l/m 0 min 0 min 285 W/m 12,9 km/h (3 Bft) 95,74 %
20.05.2023 10:20 16,4 C 17,8 C 12,8 C 70 % 1021,6 hPa 0,0 l/m 0 min 0 min 292 W/m 16,1 km/h (3 Bft) 97,87 %
20.05.2023 10:22 16,4 C 17,2 C 12,8 C 70 % 1021,5 hPa 0,0 l/m 0 min 0 min 313 W/m 22,5 km/h (4 Bft) 95,74 %
20.05.2023 10:24 16,4 C 17,2 C 12,8 C 70 % 1021,6 hPa 0,0 l/m 0 min 0 min 319 W/m 19,3 km/h (3 Bft) 93,62 %
20.05.2023 10:26 16,4 C 17,2 C 12,2 C 69 % 1021,6 hPa 0,0 l/m 0 min 0 min 308 W/m 16,1 km/h (3 Bft) 95,74 %
20.05.2023 10:28 16,4 C 17,2 C 12,8 C 70 % 1021,6 hPa 0,0 l/m 0 min 0 min 306 W/m 19,3 km/h (3 Bft) 97,83 %
20.05.2023 10:30 16,3 C 16,7 C 12,2 C 69 % 1021,5 hPa 0,0 l/m 0 min 0 min 308 W/m 22,5 km/h (4 Bft) 97,87 %
20.05.2023 10:32 16,3 C 16,7 C 12,2 C 70 % 1021,6 hPa 0,0 l/m 0 min 0 min 309 W/m 12,9 km/h (3 Bft) 97,87 %
20.05.2023 10:34 16,3 C 17,2 C 12,2 C 70 % 1021,5 hPa 0,0 l/m 0 min 0 min 312 W/m 12,9 km/h (3 Bft) 95,74 %
20.05.2023 10:36 16,3 C 17,2 C 12,2 C 71 % 1021,5 hPa 0,0 l/m 0 min 0 min 319 W/m 16,1 km/h (3 Bft) 95,74 %
20.05.2023 10:38 16,3 C 17,8 C 12,8 C 71 % 1021,5 hPa 0,0 l/m 2 min 0 min 341 W/m 12,9 km/h (3 Bft) 97,87 %
20.05.2023 10:40 16,4 C 17,8 C 12,8 C 71 % 1021,6 hPa 0,0 l/m 2 min 0 min 364 W/m 19,3 km/h (3 Bft) 97,87 %
20.05.2023 10:42 16,4 C 17,8 C 12,8 C 71 % 1021,6 hPa 0,0 l/m 2 min 0 min 378 W/m 16,1 km/h (3 Bft) 95,65 %
20.05.2023 10:44 16,5 C 17,8 C 12,8 C 71 % 1021,6 hPa 0,0 l/m 2 min 0 min 385 W/m 12,9 km/h (3 Bft) 97,87 %
20.05.2023 10:46 16,5 C 17,8 C 12,8 C 71 % 1021,5 hPa 0,0 l/m 2 min 0 min 374 W/m 12,9 km/h (3 Bft) 97,87 %
20.05.2023 10:48 16,6 C 17,8 C 12,8 C 70 % 1021,5 hPa 0,0 l/m 2 min 0 min 363 W/m 12,9 km/h (3 Bft) 95,74 %
20.05.2023 10:50 16,6 C 17,8 C 12,8 C 71 % 1021,5 hPa 0,0 l/m 2 min 0 min 357 W/m 9,7 km/h (2 Bft) 95,74 %
20.05.2023 10:52 16,6 C 17,8 C 12,8 C 71 % 1021,5 hPa 0,0 l/m 2 min 0 min 352 W/m 19,3 km/h (3 Bft) 95,74 %
20.05.2023 10:54 16,6 C 17,8 C 12,8 C 70 % 1021,5 hPa 0,0 l/m 0 min 0 min 349 W/m 22,5 km/h (4 Bft) 97,83 %
20.05.2023 10:56 16,6 C 17,8 C 12,8 C 70 % 1021,5 hPa 0,0 l/m 0 min 0 min 350 W/m 19,3 km/h (3 Bft) 97,87 %
20.05.2023 10:58 16,6 C 17,8 C 12,8 C 70 % 1021,5 hPa 0,0 l/m 2 min 0 min 355 W/m 16,1 km/h (3 Bft) 93,62 %
20.05.2023 11:00 16,6 C 17,8 C 12,8 C 70 % 1021,5 hPa 0,0 l/m 2 min 0 min 363 W/m 12,9 km/h (3 Bft) 95,74 %
20.05.2023 11:02 16,7 C 17,8 C 12,8 C 70 % 1021,5 hPa 0,0 l/m 2 min 0 min 379 W/m 25,7 km/h (4 Bft) 97,87 %
20.05.2023 11:04 16,7 C 17,8 C 12,8 C 70 % 1021,6 hPa 0,0 l/m 2 min 0 min 390 W/m 22,5 km/h (4 Bft) 97,87 %
20.05.2023 11:06 16,7 C 17,8 C 12,8 C 70 % 1021,5 hPa 0,0 l/m 2 min 0 min 403 W/m 12,9 km/h (3 Bft) 94,83 %
20.05.2023 11:08 16,7 C 17,8 C 12,8 C 70 % 1021,5 hPa 0,0 l/m 2 min 0 min 392 W/m 22,5 km/h (4 Bft) 94,29 %
20.05.2023 11:10 16,7 C 17,8 C 12,8 C 69 % 1021,6 hPa 0,0 l/m 2 min 0 min 374 W/m 25,7 km/h (4 Bft) 93,62 %
20.05.2023 11:12 16,7 C 17,2 C 12,8 C 69 % 1021,6 hPa 0,0 l/m 2 min 0 min 371 W/m 12,9 km/h (3 Bft) 93,62 %
20.05.2023 11:14 16,7 C 17,8 C 12,8 C 70 % 1021,5 hPa 0,0 l/m 2 min 0 min 386 W/m 16,1 km/h (3 Bft) 95,74 %
20.05.2023 11:16 16,8 C 18,3 C 13,3 C 70 % 1021,5 hPa 0,0 l/m 2 min 0 min 410 W/m 19,3 km/h (3 Bft) 95,74 %
20.05.2023 11:18 16,8 C 18,3 C 13,3 C 70 % 1021,5 hPa 0,0 l/m 2 min 0 min 459 W/m 16,1 km/h (3 Bft) 95,74 %
20.05.2023 11:20 16,9 C 18,3 C 13,3 C 70 % 1021,5 hPa 0,0 l/m 2 min 0 min 496 W/m 12,9 km/h (3 Bft) 95,65 %
20.05.2023 11:22 16,9 C 18,9 C 13,9 C 70 % 1021,4 hPa 0,0 l/m 2 min 0 min 502 W/m 9,7 km/h (2 Bft) 93,62 %
20.05.2023 11:24 17,1 C 19,4 C 13,9 C 71 % 1021,4 hPa 0,0 l/m 2 min 0 min 481 W/m 9,7 km/h (2 Bft) 95,74 %
20.05.2023 11:26 17,2 C 19,4 C 14,4 C 71 % 1021,3 hPa 0,0 l/m 2 min 0 min 498 W/m 19,3 km/h (3 Bft) 95,74 %
20.05.2023 11:28 17,3 C 19,4 C 14,4 C 70 % 1021,4 hPa 0,0 l/m 2 min 0 min 477 W/m 22,5 km/h (4 Bft) 95,74 %
20.05.2023 11:30 17,3 C 19,4 C 14,4 C 70 % 1021,4 hPa 0,0 l/m 2 min 0 min 482 W/m 19,3 km/h (3 Bft) 95,74 %
20.05.2023 11:32 17,4 C 20,0 C 14,4 C 70 % 1021,4 hPa 0,0 l/m 2 min 0 min 529 W/m 12,9 km/h (3 Bft) 93,62 %
20.05.2023 11:34 17,6 C 20,0 C 14,4 C 70 % 1021,4 hPa 0,0 l/m 2 min 0 min 492 W/m 9,7 km/h (2 Bft) 95,65 %
20.05.2023 11:36 17,6 C 20,0 C 14,4 C 69 % 1021,4 hPa 0,0 l/m 2 min 0 min 493 W/m 19,3 km/h (3 Bft) 95,74 %
20.05.2023 11:38 17,6 C 20,0 C 14,4 C 69 % 1021,4 hPa 0,0 l/m 2 min 0 min 518 W/m 12,9 km/h (3 Bft) 93,62 %
20.05.2023 11:40 17,6 C 20,6 C 14,4 C 69 % 1021,4 hPa 0,0 l/m 2 min 0 min 560 W/m 9,7 km/h (2 Bft) 95,74 %
20.05.2023 11:42 17,7 C 20,6 C 14,4 C 69 % 1021,5 hPa 0,0 l/m 2 min 0 min 565 W/m 12,9 km/h (3 Bft) 95,74 %
20.05.2023 11:44 17,7 C 20,0 C 15,0 C 69 % 1021,5 hPa 0,0 l/m 2 min 0 min 656 W/m 25,7 km/h (4 Bft) 95,74 %
20.05.2023 11:46 17,8 C 20,0 C 14,4 C 68 % 1021,4 hPa 0,0 l/m 2 min 0 min 534 W/m 19,3 km/h (3 Bft) 97,87 %
20.05.2023 11:48 17,8 C 19,4 C 14,4 C 68 % 1021,4 hPa 0,0 l/m 2 min 0 min 487 W/m 25,7 km/h (4 Bft) 100,00 %
20.05.2023 11:50 17,7 C 18,9 C 14,4 C 68 % 1021,3 hPa 0,0 l/m 2 min 0 min 488 W/m 16,1 km/h (3 Bft) 97,87 %
20.05.2023 11:52 17,7 C 19,4 C 14,4 C 68 % 1021,3 hPa 0,0 l/m 2 min 0 min 513 W/m 16,1 km/h (3 Bft) 100,00 %
20.05.2023 11:54 17,7 C 20,0 C 14,4 C 68 % 1021,3 hPa 0,0 l/m 2 min 0 min 538 W/m 16,1 km/h (3 Bft) 100,00 %
20.05.2023 11:56 17,7 C 19,4 C 14,4 C 68 % 1021,3 hPa 0,0 l/m 2 min 0 min 583 W/m 22,5 km/h (4 Bft) 97,87 %
20.05.2023 11:58 17,7 C 19,4 C 15,0 C 68 % 1021,3 hPa 0,0 l/m 2 min 0 min 591 W/m 19,3 km/h (3 Bft) 100,00 %
20.05.2023 12:00 17,8 C 20,0 C 15,0 C 69 % 1021,3 hPa 0,0 l/m 2 min 0 min 589 W/m 19,3 km/h (3 Bft) 100,00 %
20.05.2023 12:02 17,8 C 20,0 C 15,0 C 69 % 1021,3 hPa 0,0 l/m 2 min 0 min 554 W/m 16,1 km/h (3 Bft) 100,00 %
20.05.2023 12:04 17,9 C 20,0 C 15,0 C 69 % 1021,3 hPa 0,0 l/m 2 min 0 min 521 W/m 9,7 km/h (2 Bft) 100,00 %
20.05.2023 12:07 18,1 C 21,1 C 15,6 C 70 % 1021,3 hPa 0,0 l/m 3 min 0 min 622 W/m 16,1 km/h (3 Bft) 100,00 %
20.05.2023 12:08 18,1 C 21,1 C 15,6 C 69 % 1021,3 hPa 0,0 l/m 1 min 0 min 613 W/m 16,1 km/h (3 Bft) 100,00 %
20.05.2023 12:12 18,2 C 21,1 C 15,6 C 68 % 1021,3 hPa 0,0 l/m 4 min 0 min 557 W/m 16,1 km/h (3 Bft) 98,21 %
20.05.2023 12:14 18,2 C 20,6 C 15,6 C 68 % 1021,2 hPa 0,0 l/m 2 min 0 min 559 W/m 16,1 km/h (3 Bft) 97,96 %
20.05.2023 12:16 18,2 C 20,0 C 15,0 C 67 % 1021,2 hPa 0,0 l/m 2 min 0 min 556 W/m 19,3 km/h (3 Bft) 97,87 %
20.05.2023 12:18 18,1 C 20,0 C 15,0 C 68 % 1021,2 hPa 0,0 l/m 2 min 0 min 569 W/m 16,1 km/h (3 Bft) 100,00 %
20.05.2023 12:20 18,2 C 21,1 C 15,6 C 69 % 1021,2 hPa 0,0 l/m 2 min 0 min 651 W/m 12,9 km/h (3 Bft) 100,00 %
20.05.2023 12:22 18,2 C 21,7 C 16,1 C 69 % 1021,2 hPa 0,0 l/m 2 min 0 min 670 W/m 12,9 km/h (3 Bft) 100,00 %
20.05.2023 12:24 18,4 C 22,8 C 16,7 C 69 % 1021,2 hPa 0,0 l/m 2 min 0 min 751 W/m 9,7 km/h (2 Bft) 97,83 %
20.05.2023 12:26 18,5 C 22,8 C 17,2 C 69 % 1021,2 hPa 0,0 l/m 2 min 0 min 718 W/m 16,1 km/h (3 Bft) 100,00 %
20.05.2023 12:28 18,6 C 22,2 C 16,7 C 68 % 1021,2 hPa 0,0 l/m 2 min 0 min 647 W/m 16,1 km/h (3 Bft) 97,87 %
20.05.2023 12:30 18,6 C 21,7 C 16,7 C 67 % 1021,2 hPa 0,0 l/m 2 min 0 min 620 W/m 16,1 km/h (3 Bft) 100,00 %
20.05.2023 12:32 18,6 C 21,1 C 16,1 C 66 % 1021,1 hPa 0,0 l/m 2 min 0 min 659 W/m 19,3 km/h (3 Bft) 100,00 %
20.05.2023 12:34 18,5 C 21,1 C 16,1 C 67 % 1021,1 hPa 0,0 l/m 2 min 0 min 671 W/m 22,5 km/h (4 Bft) 100,00 %
20.05.2023 12:36 18,4 C 20,0 C 16,1 C 67 % 1021,2 hPa 0,0 l/m 2 min 0 min 629 W/m 19,3 km/h (3 Bft) 100,00 %
20.05.2023 12:38 18,4 C 20,0 C 15,6 C 67 % 1021,3 hPa 0,0 l/m 2 min 0 min 617 W/m 19,3 km/h (3 Bft) 100,00 %
20.05.2023 12:40 18,3 C 20,0 C 15,6 C 67 % 1021,2 hPa 0,0 l/m 2 min 0 min 581 W/m 16,1 km/h (3 Bft) 100,00 %
20.05.2023 12:42 18,3 C 20,0 C 15,6 C 67 % 1021,2 hPa 0,0 l/m 2 min 0 min 564 W/m 16,1 km/h (3 Bft) 95,74 %
20.05.2023 12:44 18,2 C 20,0 C 15,6 C 68 % 1021,2 hPa 0,0 l/m 2 min 0 min 597 W/m 16,1 km/h (3 Bft) 97,87 %
20.05.2023 12:46 18,2 C 21,1 C 15,6 C 68 % 1021,2 hPa 0,0 l/m 2 min 0 min 661 W/m 16,1 km/h (3 Bft) 97,87 %
20.05.2023 12:48 18,3 C 20,6 C 15,6 C 68 % 1021,1 hPa 0,0 l/m 2 min 0 min 648 W/m 25,7 km/h (4 Bft) 93,62 %
20.05.2023 12:50 18,2 C 20,6 C 15,6 C 68 % 1021,1 hPa 0,0 l/m 2 min 0 min 683 W/m 19,3 km/h (3 Bft) 97,87 %
20.05.2023 12:52 18,3 C 20,6 C 16,1 C 68 % 1021,1 hPa 0,0 l/m 2 min 0 min 674 W/m 19,3 km/h (3 Bft) 93,48 %
20.05.2023 12:54 18,2 C 20,6 C 16,1 C 67 % 1021,2 hPa 0,0 l/m 2 min 0 min 618 W/m 16,1 km/h (3 Bft) 97,87 %
20.05.2023 12:56 18,3 C 20,6 C 15,6 C 68 % 1021,2 hPa 0,0 l/m 2 min 0 min 594 W/m 19,3 km/h (3 Bft) 97,87 %
20.05.2023 12:58 18,3 C 21,1 C 16,1 C 68 % 1021,1 hPa 0,0 l/m 2 min 0 min 650 W/m 29,0 km/h (5 Bft) 97,87 %
20.05.2023 13:00 18,4 C 21,1 C 16,1 C 68 % 1021,1 hPa 0,0 l/m 2 min 0 min 635 W/m 22,5 km/h (4 Bft) 95,74 %
20.05.2023 13:02 18,4 C 21,1 C 16,1 C 68 % 1021,1 hPa 0,0 l/m 2 min 0 min 618 W/m 25,7 km/h (4 Bft) 97,87 %
20.05.2023 13:04 18,6 C 21,7 C 16,1 C 68 % 1021,1 hPa 0,0 l/m 2 min 0 min 701 W/m 12,9 km/h (3 Bft) 97,87 %
20.05.2023 13:06 18,7 C 22,2 C 16,7 C 68 % 1021,2 hPa 0,0 l/m 2 min 0 min 816 W/m 22,5 km/h (4 Bft) 97,87 %
20.05.2023 13:08 18,8 C 22,8 C 16,7 C 68 % 1021,1 hPa 0,0 l/m 2 min 0 min 764 W/m 22,5 km/h (4 Bft) 97,14 %
20.05.2023 13:10 18,9 C 23,3 C 16,7 C 67 % 1021,1 hPa 0,0 l/m 2 min 0 min 838 W/m 19,3 km/h (3 Bft) 95,74 %
20.05.2023 13:12 19,1 C 25,0 C 17,2 C 67 % 1021,1 hPa 0,0 l/m 2 min 0 min 970 W/m 9,7 km/h (2 Bft) 93,62 %
20.05.2023 13:14 19,3 C 26,1 C 17,2 C 67 % 1021,1 hPa 0,0 l/m 2 min 0 min 927 W/m 9,7 km/h (2 Bft) 93,62 %
20.05.2023 13:16 19,5 C 25,0 C 17,2 C 67 % 1021,2 hPa 0,0 l/m 2 min 0 min 825 W/m 16,1 km/h (3 Bft) 91,49 %
20.05.2023 13:18 19,6 C 23,3 C 16,7 C 66 % 1021,1 hPa 0,0 l/m 2 min 0 min 610 W/m 29,0 km/h (5 Bft) 96,00 %
20.05.2023 13:20 19,4 C 22,2 C 16,1 C 65 % 1021,2 hPa 0,0 l/m 2 min 0 min 608 W/m 19,3 km/h (3 Bft) 95,65 %
20.05.2023 13:22 19,3 C 21,1 C 16,1 C 65 % 1021,1 hPa 0,0 l/m 2 min 0 min 625 W/m 22,5 km/h (4 Bft) 95,74 %
20.05.2023 13:24 19,2 C 21,1 C 16,1 C 65 % 1021,0 hPa 0,0 l/m 2 min 0 min 542 W/m 19,3 km/h (3 Bft) 95,74 %
20.05.2023 13:26 19,2 C 21,1 C 16,1 C 66 % 1021,1 hPa 0,0 l/m 2 min 0 min 551 W/m 19,3 km/h (3 Bft) 93,62 %
20.05.2023 13:28 19,2 C 21,1 C 16,1 C 66 % 1021,1 hPa 0,0 l/m 2 min 0 min 558 W/m 16,1 km/h (3 Bft) 95,74 %
20.05.2023 13:30 19,1 C 21,7 C 16,1 C 65 % 1021,1 hPa 0,0 l/m 2 min 0 min 545 W/m 16,1 km/h (3 Bft) 97,87 %
20.05.2023 13:32 19,1 C 20,6 C 15,6 C 66 % 1021,1 hPa 0,0 l/m 2 min 0 min 534 W/m 19,3 km/h (3 Bft) 97,87 %
20.05.2023 13:34 18,9 C 20,6 C 15,6 C 66 % 1021,1 hPa 0,0 l/m 2 min 0 min 517 W/m 19,3 km/h (3 Bft) 97,83 %
20.05.2023 13:36 18,8 C 20,6 C 15,6 C 67 % 1021,1 hPa 0,0 l/m 2 min 0 min 513 W/m 25,7 km/h (4 Bft) 97,87 %
20.05.2023 13:38 18,7 C 21,1 C 15,6 C 68 % 1021,1 hPa 0,0 l/m 2 min 0 min 526 W/m 12,9 km/h (3 Bft) 97,87 %
20.05.2023 13:40 18,7 C 21,7 C 15,6 C 67 % 1021,1 hPa 0,0 l/m 2 min 0 min 606 W/m 19,3 km/h (3 Bft) 95,74 %
20.05.2023 13:42 18,7 C 22,2 C 15,6 C 67 % 1021,0 hPa 0,0 l/m 2 min 0 min 643 W/m 19,3 km/h (3 Bft) 97,87 %
20.05.2023 13:44 18,7 C 21,7 C 15,6 C 67 % 1021,1 hPa 0,0 l/m 2 min 0 min 617 W/m 22,5 km/h (4 Bft) 97,87 %
20.05.2023 13:46 18,8 C 22,2 C 16,1 C 68 % 1021,0 hPa 0,0 l/m 2 min 0 min 645 W/m 22,5 km/h (4 Bft) 100,00 %
20.05.2023 13:48 18,7 C 21,7 C 15,6 C 67 % 1020,9 hPa 0,0 l/m 2 min 0 min 583 W/m 19,3 km/h (3 Bft) 97,83 %
20.05.2023 13:50 18,7 C 21,7 C 15,6 C 67 % 1021,0 hPa 0,0 l/m 2 min 0 min 576 W/m 19,3 km/h (3 Bft) 100,00 %
20.05.2023 13:52 18,7 C 21,1 C 15,6 C 68 % 1020,9 hPa 0,0 l/m 2 min 0 min 588 W/m 12,9 km/h (3 Bft) 97,87 %
20.05.2023 13:54 18,7 C 22,2 C 15,6 C 67 % 1020,9 hPa 0,0 l/m 2 min 0 min 652 W/m 19,3 km/h (3 Bft) 100,00 %
20.05.2023 13:56 18,8 C 22,2 C 15,6 C 67 % 1020,8 hPa 0,0 l/m 2 min 0 min 714 W/m 19,3 km/h (3 Bft) 100,00 %
20.05.2023 13:58 18,8 C 22,8 C 16,1 C 68 % 1020,8 hPa 0,0 l/m 2 min 0 min 760 W/m 12,9 km/h (3 Bft) 100,00 %
20.05.2023 14:00 19,0 C 23,3 C 16,1 C 68 % 1020,8 hPa 0,0 l/m 2 min 0 min 733 W/m 16,1 km/h (3 Bft) 100,00 %
20.05.2023 14:02 19,1 C 23,3 C 16,1 C 67 % 1020,8 hPa 0,0 l/m 2 min 0 min 736 W/m 22,5 km/h (4 Bft) 100,00 %
20.05.2023 14:04 19,1 C 22,8 C 15,6 C 67 % 1020,8 hPa 0,0 l/m 2 min 0 min 726 W/m 12,9 km/h (3 Bft) 100,00 %
20.05.2023 14:06 19,2 C 23,3 C 16,1 C 68 % 1020,8 hPa 0,0 l/m 2 min 0 min 733 W/m 19,3 km/h (3 Bft) 98,31 %
20.05.2023 14:08 19,2 C 23,3 C 16,1 C 67 % 1020,7 hPa 0,0 l/m 2 min 0 min 691 W/m 29,0 km/h (5 Bft) 100,00 %
20.05.2023 14:10 19,3 C 23,3 C 16,1 C 68 % 1020,7 hPa 0,0 l/m 2 min 0 min 647 W/m 12,9 km/h (3 Bft) 97,87 %
20.05.2023 14:12 19,4 C 23,3 C 16,1 C 67 % 1020,7 hPa 0,0 l/m 2 min 0 min 730 W/m 16,1 km/h (3 Bft) 100,00 %
20.05.2023 14:14 19,5 C 24,4 C 16,1 C 67 % 1020,7 hPa 0,0 l/m 2 min 0 min 745 W/m 16,1 km/h (3 Bft) 97,83 %
20.05.2023 14:16 19,6 C 23,9 C 16,1 C 67 % 1020,8 hPa 0,0 l/m 2 min 0 min 726 W/m 16,1 km/h (3 Bft) 97,87 %
20.05.2023 14:18 19,6 C 23,3 C 16,1 C 66 % 1020,7 hPa 0,0 l/m 2 min 0 min 690 W/m 25,7 km/h (4 Bft) 100,00 %
20.05.2023 14:20 19,6 C 22,8 C 16,1 C 66 % 1020,6 hPa 0,0 l/m 2 min 0 min 707 W/m 22,5 km/h (4 Bft) 100,00 %
20.05.2023 14:22 19,6 C 22,8 C 16,1 C 67 % 1020,6 hPa 0,0 l/m 2 min 0 min 630 W/m 16,1 km/h (3 Bft) 100,00 %
20.05.2023 14:24 19,7 C 22,8 C 16,1 C 67 % 1020,6 hPa 0,0 l/m 2 min 0 min 623 W/m 16,1 km/h (3 Bft) 95,74 %
20.05.2023 14:26 19,7 C 22,8 C 16,1 C 66 % 1020,6 hPa 0,0 l/m 2 min 0 min 623 W/m 16,1 km/h (3 Bft) 97,83 %
20.05.2023 14:28 19,7 C 22,2 C 16,1 C 66 % 1020,6 hPa 0,0 l/m 2 min 0 min 640 W/m 16,1 km/h (3 Bft) 97,87 %
20.05.2023 14:30 19,7 C 22,8 C 16,1 C 66 % 1020,5 hPa 0,0 l/m 2 min 0 min 637 W/m 16,1 km/h (3 Bft) 97,87 %
20.05.2023 14:32 19,7 C 22,8 C 16,1 C 66 % 1020,6 hPa 0,0 l/m 2 min 0 min 603 W/m 12,9 km/h (3 Bft) 97,87 %
20.05.2023 14:34 19,7 C 22,8 C 16,1 C 66 % 1020,5 hPa 0,0 l/m 2 min 0 min 599 W/m 19,3 km/h (3 Bft) 97,87 %
20.05.2023 14:36 19,8 C 22,8 C 16,1 C 67 % 1020,6 hPa 0,0 l/m 2 min 0 min 657 W/m 19,3 km/h (3 Bft) 97,87 %
20.05.2023 14:38 19,8 C 23,3 C 16,1 C 66 % 1020,5 hPa 0,0 l/m 2 min 0 min 728 W/m 19,3 km/h (3 Bft) 97,87 %
20.05.2023 14:40 19,8 C 23,9 C 16,1 C 66 % 1020,5 hPa 0,0 l/m 2 min 0 min 705 W/m 19,3 km/h (3 Bft) 97,83 %
20.05.2023 14:42 19,8 C 23,9 C 16,1 C 66 % 1020,5 hPa 0,0 l/m 2 min 0 min 698 W/m 19,3 km/h (3 Bft) 97,87 %
20.05.2023 14:44 19,8 C 23,3 C 16,1 C 65 % 1020,4 hPa 0,0 l/m 2 min 0 min 665 W/m 25,7 km/h (4 Bft) 97,87 %
20.05.2023 14:46 19,8 C 23,3 C 16,1 C 66 % 1020,4 hPa 0,0 l/m 2 min 0 min 582 W/m 19,3 km/h (3 Bft) 97,87 %
20.05.2023 14:48 19,8 C 23,3 C 16,1 C 67 % 1020,5 hPa 0,0 l/m 2 min 0 min 607 W/m 16,1 km/h (3 Bft) 97,87 %
20.05.2023 14:50 19,8 C 23,9 C 16,7 C 68 % 1020,4 hPa 0,0 l/m 2 min 0 min 728 W/m 12,9 km/h (3 Bft) 97,87 %
20.05.2023 14:52 19,9 C 25,0 C 16,7 C 67 % 1020,4 hPa 0,0 l/m 2 min 0 min 789 W/m 19,3 km/h (3 Bft) 97,87 %
20.05.2023 14:54 20,1 C 26,1 C 16,7 C 66 % 1020,3 hPa 0,0 l/m 2 min 0 min 925 W/m 22,5 km/h (4 Bft) 95,65 %
20.05.2023 14:56 20,2 C 26,1 C 17,2 C 67 % 1020,3 hPa 0,0 l/m 2 min 0 min 901 W/m 19,3 km/h (3 Bft) 97,87 %
20.05.2023 14:58 20,3 C 25,6 C 16,7 C 66 % 1020,3 hPa 0,0 l/m 2 min 0 min 813 W/m 19,3 km/h (3 Bft) 97,87 %
20.05.2023 15:00 20,4 C 24,4 C 16,7 C 65 % 1020,3 hPa 0,0 l/m 2 min 0 min 726 W/m 25,7 km/h (4 Bft) 97,87 %
20.05.2023 15:02 20,4 C 24,4 C 16,7 C 65 % 1020,3 hPa 0,0 l/m 2 min 0 min 632 W/m 12,9 km/h (3 Bft) 95,74 %
20.05.2023 15:04 20,4 C 23,9 C 16,7 C 65 % 1020,3 hPa 0,0 l/m 2 min 0 min 670 W/m 16,1 km/h (3 Bft) 97,92 %
20.05.2023 15:06 20,6 C 24,4 C 17,2 C 65 % 1020,1 hPa 0,0 l/m 2 min 0 min 644 W/m 12,9 km/h (3 Bft) 98,28 %
20.05.2023 15:08 20,7 C 24,4 C 17,2 C 67 % 1020,1 hPa 0,0 l/m 2 min 0 min 601 W/m 16,1 km/h (3 Bft) 97,14 %
20.05.2023 15:10 20,7 C 24,4 C 17,2 C 66 % 1020,1 hPa 0,0 l/m 2 min 0 min 566 W/m 16,1 km/h (3 Bft) 97,87 %
20.05.2023 15:12 20,7 C 23,9 C 17,2 C 66 % 1020,0 hPa 0,0 l/m 2 min 0 min 577 W/m 16,1 km/h (3 Bft) 95,74 %
20.05.2023 15:14 20,7 C 23,9 C 17,2 C 65 % 1020,0 hPa 0,0 l/m 2 min 0 min 521 W/m 25,7 km/h (4 Bft) 95,74 %
20.05.2023 15:16 20,7 C 23,9 C 17,2 C 65 % 1020,0 hPa 0,0 l/m 2 min 0 min 563 W/m 22,5 km/h (4 Bft) 93,62 %
20.05.2023 15:18 20,8 C 23,9 C 17,2 C 66 % 1020,0 hPa 0,0 l/m 2 min 0 min 529 W/m 12,9 km/h (3 Bft) 93,62 %
20.05.2023 15:20 20,7 C 22,8 C 16,7 C 64 % 1020,0 hPa 0,0 l/m 2 min 0 min 546 W/m 19,3 km/h (3 Bft) 95,74 %
20.05.2023 15:22 20,7 C 22,2 C 16,7 C 65 % 1020,0 hPa 0,0 l/m 2 min 0 min 423 W/m 16,1 km/h (3 Bft) 95,65 %
20.05.2023 15:24 20,6 C 22,8 C 16,7 C 65 % 1019,9 hPa 0,0 l/m 2 min 0 min 467 W/m 16,1 km/h (3 Bft) 95,74 %
20.05.2023 15:26 20,6 C 22,8 C 16,7 C 65 % 1019,9 hPa 0,0 l/m 2 min 0 min 446 W/m 16,1 km/h (3 Bft) 95,74 %
20.05.2023 15:28 20,6 C 22,8 C 16,7 C 65 % 1019,9 hPa 0,0 l/m 2 min 0 min 470 W/m 25,7 km/h (4 Bft) 95,74 %
20.05.2023 15:30 20,6 C 22,8 C 16,7 C 65 % 1019,8 hPa 0,0 l/m 2 min 0 min 582 W/m 16,1 km/h (3 Bft) 93,62 %
20.05.2023 15:32 20,6 C 22,8 C 16,7 C 65 % 1019,8 hPa 0,0 l/m 2 min 0 min 568 W/m 16,1 km/h (3 Bft) 93,62 %
20.05.2023 15:34 20,6 C 23,3 C 16,7 C 65 % 1019,8 hPa 0,0 l/m 2 min 0 min 565 W/m 12,9 km/h (3 Bft) 95,74 %
20.05.2023 15:36 20,7 C 24,4 C 17,2 C 66 % 1019,8 hPa 0,0 l/m 2 min 0 min 624 W/m 16,1 km/h (3 Bft) 93,48 %
20.05.2023 15:38 20,8 C 25,0 C 17,2 C 66 % 1019,8 hPa 0,0 l/m 2 min 0 min 677 W/m 16,1 km/h (3 Bft) 93,62 %
20.05.2023 15:40 20,9 C 24,4 C 17,2 C 65 % 1019,8 hPa 0,0 l/m 2 min 0 min 577 W/m 22,5 km/h (4 Bft) 95,74 %
20.05.2023 15:42 21,0 C 25,0 C 17,2 C 65 % 1019,8 hPa 0,0 l/m 2 min 0 min 563 W/m 16,1 km/h (3 Bft) 95,74 %
20.05.2023 15:44 21,1 C 23,9 C 17,2 C 64 % 1019,8 hPa 0,0 l/m 2 min 0 min 702 W/m 16,1 km/h (3 Bft) 95,74 %
20.05.2023 15:46 21,0 C 23,3 C 17,2 C 63 % 1019,8 hPa 0,0 l/m 2 min 0 min 445 W/m 25,7 km/h (4 Bft) 95,74 %
20.05.2023 15:48 21,0 C 23,3 C 17,2 C 63 % 1019,7 hPa 0,0 l/m 2 min 0 min 377 W/m 16,1 km/h (3 Bft) 97,83 %
20.05.2023 15:50 20,9 C 22,2 C 16,7 C 63 % 1019,7 hPa 0,0 l/m 0 min 0 min 343 W/m 19,3 km/h (3 Bft) 97,87 %
20.05.2023 15:52 20,7 C 22,2 C 16,7 C 64 % 1019,7 hPa 0,0 l/m 0 min 0 min 341 W/m 16,1 km/h (3 Bft) 95,74 %
20.05.2023 15:54 20,7 C 22,8 C 16,7 C 64 % 1019,7 hPa 0,0 l/m 2 min 0 min 400 W/m 16,1 km/h (3 Bft) 97,87 %
20.05.2023 15:56 20,7 C 22,8 C 17,2 C 65 % 1019,6 hPa 0,0 l/m 2 min 0 min 417 W/m 16,1 km/h (3 Bft) 97,87 %
20.05.2023 15:58 20,7 C 22,8 C 17,2 C 65 % 1019,6 hPa 0,0 l/m 2 min 0 min 508 W/m 12,9 km/h (3 Bft) 97,87 %
20.05.2023 16:00 20,8 C 23,3 C 17,2 C 65 % 1019,6 hPa 0,0 l/m 2 min 0 min 617 W/m 12,9 km/h (3 Bft) 97,87 %
20.05.2023 16:02 20,8 C 23,3 C 17,2 C 65 % 1019,6 hPa 0,0 l/m 2 min 0 min 527 W/m 12,9 km/h (3 Bft) 100,00 %
20.05.2023 16:04 20,9 C 23,3 C 17,2 C 64 % 1019,6 hPa 0,0 l/m 2 min 0 min 458 W/m 12,9 km/h (3 Bft) 97,87 %
20.05.2023 16:06 20,9 C 23,3 C 17,2 C 65 % 1019,5 hPa 0,0 l/m 2 min 0 min 459 W/m 12,9 km/h (3 Bft) 100,00 %
20.05.2023 16:08 20,9 C 23,3 C 17,2 C 65 % 1019,5 hPa 0,0 l/m 2 min 0 min 502 W/m 6,4 km/h (2 Bft) 100,00 %
20.05.2023 16:10 20,9 C 23,3 C 17,2 C 64 % 1019,5 hPa 0,0 l/m 2 min 0 min 510 W/m 19,3 km/h (3 Bft) 100,00 %
20.05.2023 16:12 20,9 C 22,8 C 17,2 C 63 % 1019,4 hPa 0,0 l/m 2 min 0 min 498 W/m 12,9 km/h (3 Bft) 100,00 %
20.05.2023 16:14 20,9 C 22,8 C 17,2 C 63 % 1019,3 hPa 0,0 l/m 2 min 0 min 647 W/m 19,3 km/h (3 Bft) 97,83 %
20.05.2023 16:16 20,8 C 22,8 C 17,2 C 63 % 1019,4 hPa 0,0 l/m 2 min 0 min 467 W/m 12,9 km/h (3 Bft) 97,87 %
20.05.2023 16:18 20,8 C 22,8 C 17,2 C 63 % 1019,4 hPa 0,0 l/m 2 min 0 min 430 W/m 19,3 km/h (3 Bft) 100,00 %
20.05.2023 16:20 20,8 C 22,8 C 17,2 C 63 % 1019,4 hPa 0,0 l/m 2 min 0 min 424 W/m 19,3 km/h (3 Bft) 100,00 %
20.05.2023 16:22 20,8 C 22,8 C 17,2 C 64 % 1019,4 hPa 0,0 l/m 2 min 0 min 483 W/m 22,5 km/h (4 Bft) 100,00 %
20.05.2023 16:24 20,8 C 22,8 C 17,2 C 64 % 1019,3 hPa 0,0 l/m 2 min 0 min 504 W/m 22,5 km/h (4 Bft) 100,00 %
20.05.2023 16:26 20,8 C 22,8 C 17,2 C 63 % 1019,4 hPa 0,0 l/m 2 min 0 min 460 W/m 19,3 km/h (3 Bft) 100,00 %
20.05.2023 16:28 20,7 C 22,8 C 16,7 C 62 % 1019,3 hPa 0,0 l/m 2 min 0 min 462 W/m 22,5 km/h (4 Bft) 97,87 %
20.05.2023 16:30 20,7 C 22,8 C 16,7 C 63 % 1019,3 hPa 0,0 l/m 2 min 0 min 476 W/m 16,1 km/h (3 Bft) 100,00 %
20.05.2023 16:32 20,7 C 22,8 C 17,2 C 64 % 1019,3 hPa 0,0 l/m 2 min 0 min 438 W/m 16,1 km/h (3 Bft) 100,00 %
20.05.2023 16:34 20,6 C 22,2 C 16,7 C 63 % 1019,3 hPa 0,0 l/m 2 min 0 min 408 W/m 25,7 km/h (4 Bft) 100,00 %
20.05.2023 16:36 20,6 C 22,2 C 16,7 C 63 % 1019,3 hPa 0,0 l/m 2 min 0 min 408 W/m 16,1 km/h (3 Bft) 100,00 %
20.05.2023 16:38 20,6 C 22,2 C 16,7 C 64 % 1019,3 hPa 0,0 l/m 2 min 0 min 433 W/m 19,3 km/h (3 Bft) 100,00 %
20.05.2023 16:40 20,5 C 22,2 C 16,7 C 64 % 1019,2 hPa 0,0 l/m 2 min 0 min 427 W/m 12,9 km/h (3 Bft) 100,00 %
20.05.2023 16:42 20,5 C 22,2 C 16,7 C 64 % 1019,2 hPa 0,0 l/m 2 min 0 min 402 W/m 19,3 km/h (3 Bft) 100,00 %
20.05.2023 16:44 20,4 C 22,2 C 16,7 C 63 % 1019,2 hPa 0,0 l/m 2 min 0 min 417 W/m 16,1 km/h (3 Bft) 100,00 %
20.05.2023 16:46 20,4 C 22,8 C 16,7 C 63 % 1019,1 hPa 0,0 l/m 2 min 0 min 517 W/m 19,3 km/h (3 Bft) 100,00 %
20.05.2023 16:48 20,5 C 23,9 C 17,2 C 64 % 1019,1 hPa 0,0 l/m 2 min 0 min 624 W/m 12,9 km/h (3 Bft) 100,00 %
20.05.2023 16:50 20,6 C 24,4 C 17,2 C 64 % 1019,1 hPa 0,0 l/m 2 min 0 min 639 W/m 16,1 km/h (3 Bft) 100,00 %
20.05.2023 16:52 20,7 C 25,6 C 17,8 C 64 % 1019,1 hPa 0,0 l/m 2 min 0 min 785 W/m 12,9 km/h (3 Bft) 97,83 %
20.05.2023 16:54 20,8 C 25,0 C 17,8 C 63 % 1019,1 hPa 0,0 l/m 2 min 0 min 668 W/m 19,3 km/h (3 Bft) 100,00 %
20.05.2023 16:56 20,9 C 24,4 C 17,8 C 63 % 1019,1 hPa 0,0 l/m 2 min 0 min 500 W/m 16,1 km/h (3 Bft) 100,00 %
20.05.2023 16:58 20,9 C 24,4 C 17,8 C 62 % 1019,1 hPa 0,0 l/m 2 min 0 min 527 W/m 19,3 km/h (3 Bft) 100,00 %
20.05.2023 17:00 20,9 C 23,3 C 17,2 C 62 % 1019,1 hPa 0,0 l/m 2 min 0 min 378 W/m 19,3 km/h (3 Bft) 100,00 %
20.05.2023 17:02 20,9 C 23,3 C 17,2 C 63 % 1019,1 hPa 0,0 l/m 2 min 0 min 449 W/m 22,5 km/h (4 Bft) 97,87 %
20.05.2023 17:04 20,8 C 22,8 C 17,2 C 62 % 1019,1 hPa 0,0 l/m 2 min 0 min 486 W/m 16,1 km/h (3 Bft) 97,83 %
20.05.2023 17:06 20,8 C 22,8 C 16,7 C 62 % 1019,1 hPa 0,0 l/m 2 min 0 min 343 W/m 12,9 km/h (3 Bft) 100,00 %
20.05.2023 17:08 20,7 C 22,8 C 16,7 C 62 % 1019,1 hPa 0,0 l/m 2 min 0 min 327 W/m 19,3 km/h (3 Bft) 100,00 %
20.05.2023 17:10 20,7 C 22,2 C 16,7 C 63 % 1019,2 hPa 0,0 l/m 2 min 0 min 298 W/m 16,1 km/h (3 Bft) 97,37 %
20.05.2023 17:12 20,6 C 22,2 C 16,7 C 62 % 1019,1 hPa 0,0 l/m 2 min 0 min 368 W/m 25,7 km/h (4 Bft) 97,87 %
20.05.2023 17:14 20,6 C 23,9 C 17,2 C 64 % 1019,1 hPa 0,0 l/m 2 min 0 min 397 W/m 9,7 km/h (2 Bft) 97,87 %
20.05.2023 17:16 20,7 C 24,4 C 17,2 C 64 % 1019,1 hPa 0,0 l/m 2 min 0 min 394 W/m 12,9 km/h (3 Bft) 97,87 %
20.05.2023 17:18 20,7 C 23,3 C 17,2 C 63 % 1019,1 hPa 0,0 l/m 2 min 0 min 355 W/m 22,5 km/h (4 Bft) 97,87 %
20.05.2023 17:20 20,8 C 23,3 C 17,2 C 63 % 1019,1 hPa 0,0 l/m 2 min 0 min 426 W/m 12,9 km/h (3 Bft) 95,65 %
20.05.2023 17:22 20,7 C 22,8 C 17,2 C 63 % 1019,1 hPa 0,0 l/m 2 min 0 min 294 W/m 12,9 km/h (3 Bft) 95,74 %
20.05.2023 17:24 20,6 C 21,7 C 16,7 C 63 % 1019,1 hPa 0,0 l/m 0 min 0 min 204 W/m 12,9 km/h (3 Bft) 97,87 %
20.05.2023 17:26 20,6 C 21,1 C 16,7 C 63 % 1019,1 hPa 0,0 l/m 0 min 0 min 178 W/m 19,3 km/h (3 Bft) 97,87 %
20.05.2023 17:28 20,4 C 20,6 C 16,1 C 62 % 1019,1 hPa 0,0 l/m 0 min 0 min 162 W/m 19,3 km/h (3 Bft) 97,87 %
20.05.2023 17:30 20,3 C 20,6 C 16,1 C 63 % 1019,1 hPa 0,0 l/m 0 min 0 min 163 W/m 9,7 km/h (2 Bft) 95,74 %
20.05.2023 17:32 20,2 C 20,0 C 16,1 C 63 % 1019,1 hPa 0,0 l/m 0 min 0 min 168 W/m 12,9 km/h (3 Bft) 97,83 %
20.05.2023 17:34 20,1 C 20,0 C 16,1 C 64 % 1019,1 hPa 0,0 l/m 0 min 0 min 177 W/m 12,9 km/h (3 Bft) 97,87 %
20.05.2023 17:36 20,1 C 20,0 C 16,1 C 64 % 1019,0 hPa 0,0 l/m 0 min 0 min 178 W/m 9,7 km/h (2 Bft) 97,87 %
20.05.2023 17:38 20,0 C 20,0 C 16,1 C 64 % 1019,1 hPa 0,0 l/m 0 min 0 min 168 W/m 9,7 km/h (2 Bft) 97,87 %
20.05.2023 17:40 19,9 C 20,0 C 15,6 C 64 % 1019,1 hPa 0,0 l/m 0 min 0 min 141 W/m 19,3 km/h (3 Bft) 95,74 %
20.05.2023 17:42 19,8 C 20,0 C 15,6 C 64 % 1019,1 hPa 0,0 l/m 0 min 0 min 119 W/m 12,9 km/h (3 Bft) 95,74 %
20.05.2023 17:44 19,7 C 19,4 C 15,6 C 64 % 1019,1 hPa 0,0 l/m 0 min 0 min 116 W/m 19,3 km/h (3 Bft) 93,62 %
20.05.2023 17:46 19,7 C 19,4 C 15,6 C 65 % 1019,1 hPa 0,0 l/m 0 min 0 min 121 W/m 12,9 km/h (3 Bft) 93,48 %
20.05.2023 17:48 19,6 C 19,4 C 15,6 C 65 % 1019,1 hPa 0,0 l/m 0 min 0 min 133 W/m 16,1 km/h (3 Bft) 95,74 %
20.05.2023 17:50 19,5 C 19,4 C 15,6 C 65 % 1019,1 hPa 0,0 l/m 0 min 0 min 161 W/m 22,5 km/h (4 Bft) 95,74 %
20.05.2023 17:52 19,5 C 19,4 C 15,6 C 65 % 1019,0 hPa 0,0 l/m 0 min 0 min 179 W/m 16,1 km/h (3 Bft) 93,62 %
20.05.2023 17:54 19,4 C 19,4 C 15,6 C 64 % 1019,0 hPa 0,0 l/m 0 min 0 min 182 W/m 16,1 km/h (3 Bft) 95,74 %
20.05.2023 17:56 19,4 C 19,4 C 15,6 C 65 % 1019,0 hPa 0,0 l/m 0 min 0 min 186 W/m 12,9 km/h (3 Bft) 93,62 %
20.05.2023 17:58 19,3 C 19,4 C 15,6 C 65 % 1019,0 hPa 0,0 l/m 0 min 0 min 182 W/m 16,1 km/h (3 Bft) 91,49 %
20.05.2023 18:00 19,4 C 19,4 C 15,6 C 65 % 1019,0 hPa 0,0 l/m 0 min 0 min 179 W/m 16,1 km/h (3 Bft) 95,65 %
20.05.2023 18:02 19,3 C 19,4 C 15,6 C 65 % 1018,9 hPa 0,0 l/m 0 min 0 min 160 W/m 6,4 km/h (2 Bft) 93,62 %
20.05.2023 18:04 19,4 C 19,4 C 15,6 C 66 % 1018,9 hPa 0,0 l/m 0 min 0 min 142 W/m 19,3 km/h (3 Bft) 93,88 %
20.05.2023 18:07 19,4 C 19,4 C 15,6 C 66 % 1018,9 hPa 0,0 l/m 0 min 0 min 111 W/m 12,9 km/h (3 Bft) 93,88 %
20.05.2023 18:08 19,4 C 19,4 C 15,0 C 66 % 1018,9 hPa 0,0 l/m 0 min 0 min 117 W/m 16,1 km/h (3 Bft) 94,12 %
20.05.2023 18:10 19,3 C 18,9 C 15,0 C 66 % 1019,0 hPa 0,0 l/m 0 min 0 min 112 W/m 19,3 km/h (3 Bft) 95,74 %
20.05.2023 18:12 19,3 C 18,9 C 15,0 C 66 % 1018,9 hPa 0,0 l/m 0 min 0 min 114 W/m 12,9 km/h (3 Bft) 95,65 %
20.05.2023 18:14 19,2 C 18,9 C 15,0 C 65 % 1018,9 hPa 0,0 l/m 0 min 0 min 117 W/m 19,3 km/h (3 Bft) 95,74 %
20.05.2023 18:16 19,2 C 18,9 C 15,0 C 66 % 1018,9 hPa 0,0 l/m 0 min 0 min 109 W/m 16,1 km/h (3 Bft) 95,74 %
20.05.2023 18:18 19,1 C 18,9 C 15,0 C 66 % 1018,9 hPa 0,0 l/m 0 min 0 min 88 W/m 19,3 km/h (3 Bft) 95,74 %
20.05.2023 18:20 19,1 C 18,9 C 15,0 C 66 % 1018,9 hPa 0,0 l/m 0 min 0 min 72 W/m 12,9 km/h (3 Bft) 93,62 %
20.05.2023 18:22 19,1 C 18,9 C 15,0 C 67 % 1018,9 hPa 0,0 l/m 0 min 0 min 61 W/m 19,3 km/h (3 Bft) 95,74 %
20.05.2023 18:24 19,0 C 18,3 C 14,4 C 67 % 1019,0 hPa 0,0 l/m 0 min 0 min 50 W/m 19,3 km/h (3 Bft) 95,65 %
20.05.2023 18:26 18,9 C 18,3 C 14,4 C 67 % 1019,0 hPa 0,0 l/m 0 min 0 min 52 W/m 12,9 km/h (3 Bft) 95,74 %
20.05.2023 18:28 18,9 C 18,3 C 14,4 C 67 % 1019,0 hPa 0,0 l/m 0 min 0 min 57 W/m 22,5 km/h (4 Bft) 93,62 %
20.05.2023 18:30 18,8 C 18,3 C 14,4 C 67 % 1019,0 hPa 0,0 l/m 0 min 0 min 67 W/m 16,1 km/h (3 Bft) 97,87 %
20.05.2023 18:32 18,7 C 18,3 C 14,4 C 66 % 1019,0 hPa 0,0 l/m 0 min 0 min 78 W/m 22,5 km/h (4 Bft) 97,87 %
20.05.2023 18:34 18,7 C 18,3 C 14,4 C 66 % 1019,0 hPa 0,0 l/m 0 min 0 min 81 W/m 16,1 km/h (3 Bft) 97,87 %
20.05.2023 18:36 18,7 C 18,3 C 14,4 C 67 % 1019,0 hPa 0,0 l/m 0 min 0 min 87 W/m 12,9 km/h (3 Bft) 97,87 %
20.05.2023 18:38 18,6 C 18,3 C 14,4 C 67 % 1019,0 hPa 0,0 l/m 0 min 0 min 95 W/m 12,9 km/h (3 Bft) 97,83 %
20.05.2023 18:40 18,6 C 18,3 C 14,4 C 67 % 1019,0 hPa 0,0 l/m 0 min 0 min 92 W/m 12,9 km/h (3 Bft) 100,00 %
20.05.2023 18:42 18,6 C 18,3 C 14,4 C 67 % 1019,0 hPa 0,0 l/m 0 min 0 min 86 W/m 9,7 km/h (2 Bft) 97,87 %
20.05.2023 18:44 18,6 C 18,3 C 14,4 C 68 % 1019,0 hPa 0,0 l/m 0 min 0 min 82 W/m 12,9 km/h (3 Bft) 100,00 %
20.05.2023 18:46 18,6 C 18,3 C 14,4 C 67 % 1019,0 hPa 0,0 l/m 0 min 0 min 71 W/m 9,7 km/h (2 Bft) 100,00 %
20.05.2023 18:48 18,6 C 18,3 C 14,4 C 68 % 1019,0 hPa 0,0 l/m 0 min 0 min 56 W/m 9,7 km/h (2 Bft) 100,00 %
20.05.2023 18:50 18,6 C 18,3 C 14,4 C 68 % 1019,0 hPa 0,0 l/m 0 min 0 min 46 W/m 12,9 km/h (3 Bft) 100,00 %
20.05.2023 18:52 18,6 C 18,3 C 14,4 C 68 % 1019,0 hPa 0,0 l/m 0 min 0 min 40 W/m 6,4 km/h (2 Bft) 97,87 %
20.05.2023 18:54 18,6 C 18,3 C 14,4 C 68 % 1019,0 hPa 0,0 l/m 0 min 0 min 39 W/m 16,1 km/h (3 Bft) 100,00 %
20.05.2023 18:56 18,6 C 17,8 C 14,4 C 68 % 1019,0 hPa 0,0 l/m 0 min 0 min 39 W/m 19,3 km/h (3 Bft) 100,00 %
20.05.2023 18:58 18,5 C 17,8 C 13,9 C 68 % 1019,1 hPa 0,0 l/m 0 min 0 min 39 W/m 12,9 km/h (3 Bft) 100,00 %
20.05.2023 19:00 18,4 C 17,8 C 13,9 C 68 % 1019,2 hPa 0,0 l/m 0 min 0 min 39 W/m 16,1 km/h (3 Bft) 97,87 %
20.05.2023 19:02 18,4 C 17,8 C 13,9 C 68 % 1019,2 hPa 0,0 l/m 0 min 0 min 39 W/m 9,7 km/h (2 Bft) 100,00 %
20.05.2023 19:04 18,3 C 17,8 C 13,9 C 68 % 1019,2 hPa 0,0 l/m 0 min 0 min 40 W/m 6,4 km/h (2 Bft) 100,00 %
20.05.2023 19:06 18,3 C 17,8 C 13,9 C 68 % 1019,2 hPa 0,0 l/m 0 min 0 min 42 W/m 9,7 km/h (2 Bft) 100,00 %
20.05.2023 19:08 18,3 C 17,8 C 13,9 C 68 % 1019,2 hPa 0,0 l/m 0 min 0 min 46 W/m 16,1 km/h (3 Bft) 97,87 %
20.05.2023 19:10 18,2 C 17,8 C 13,9 C 68 % 1019,2 hPa 0,0 l/m 0 min 0 min 54 W/m 9,7 km/h (2 Bft) 100,00 %
20.05.2023 19:12 18,2 C 17,8 C 13,9 C 68 % 1019,3 hPa 0,0 l/m 0 min 0 min 58 W/m 16,1 km/h (3 Bft) 100,00 %
20.05.2023 19:14 18,2 C 17,8 C 13,9 C 68 % 1019,3 hPa 0,0 l/m 0 min 0 min 62 W/m 12,9 km/h (3 Bft) 95,74 %
20.05.2023 19:16 18,2 C 17,8 C 13,9 C 69 % 1019,2 hPa 0,0 l/m 0 min 0 min 60 W/m 12,9 km/h (3 Bft) 97,87 %
20.05.2023 19:18 18,2 C 17,8 C 13,9 C 69 % 1019,3 hPa 0,0 l/m 0 min 0 min 56 W/m 12,9 km/h (3 Bft) 97,87 %
20.05.2023 19:20 18,1 C 17,8 C 13,9 C 69 % 1019,3 hPa 0,0 l/m 0 min 0 min 52 W/m 12,9 km/h (3 Bft) 93,48 %
20.05.2023 19:22 18,1 C 17,8 C 13,9 C 69 % 1019,3 hPa 0,0 l/m 0 min 0 min 47 W/m 12,9 km/h (3 Bft) 97,87 %
20.05.2023 19:24 18,1 C 17,8 C 13,9 C 69 % 1019,3 hPa 0,0 l/m 0 min 0 min 44 W/m 16,1 km/h (3 Bft) 97,87 %
20.05.2023 19:26 18,1 C 17,8 C 13,9 C 69 % 1019,3 hPa 0,0 l/m 0 min 0 min 40 W/m 9,7 km/h (2 Bft) 93,62 %
20.05.2023 19:28 18,1 C 17,8 C 13,9 C 69 % 1019,3 hPa 0,0 l/m 0 min 0 min 41 W/m 12,9 km/h (3 Bft) 97,87 %
20.05.2023 19:30 18,0 C 17,8 C 13,9 C 69 % 1019,3 hPa 0,0 l/m 0 min 0 min 40 W/m 6,4 km/h (2 Bft) 97,87 %
20.05.2023 19:32 18,0 C 17,8 C 13,3 C 69 % 1019,3 hPa 0,0 l/m 0 min 0 min 40 W/m 9,7 km/h (2 Bft) 95,74 %
20.05.2023 19:34 18,0 C 17,8 C 13,9 C 70 % 1019,3 hPa 0,0 l/m 0 min 0 min 40 W/m 6,4 km/h (2 Bft) 97,83 %
20.05.2023 19:36 18,0 C 17,8 C 13,3 C 70 % 1019,3 hPa 0,0 l/m 0 min 0 min 42 W/m 6,4 km/h (2 Bft) 95,74 %
20.05.2023 19:38 17,9 C 17,8 C 13,3 C 70 % 1019,3 hPa 0,0 l/m 0 min 0 min 44 W/m 6,4 km/h (2 Bft) 97,87 %
20.05.2023 19:40 17,9 C 17,2 C 13,3 C 70 % 1019,3 hPa 0,0 l/m 0 min 0 min 45 W/m 12,9 km/h (3 Bft) 97,87 %
20.05.2023 19:42 17,9 C 17,2 C 13,3 C 70 % 1019,3 hPa 0,0 l/m 0 min 0 min 46 W/m 12,9 km/h (3 Bft) 97,87 %
20.05.2023 19:44 17,9 C 17,2 C 13,3 C 70 % 1019,3 hPa 0,0 l/m 0 min 0 min 45 W/m 12,9 km/h (3 Bft) 100,00 %
20.05.2023 19:46 17,8 C 17,2 C 13,3 C 70 % 1019,3 hPa 0,0 l/m 0 min 0 min 45 W/m 9,7 km/h (2 Bft) 100,00 %
20.05.2023 19:48 17,8 C 17,2 C 13,3 C 70 % 1019,3 hPa 0,0 l/m 0 min 0 min 46 W/m 12,9 km/h (3 Bft) 100,00 %
20.05.2023 19:50 17,8 C 17,2 C 13,3 C 70 % 1019,2 hPa 0,0 l/m 0 min 0 min 47 W/m 9,7 km/h (2 Bft) 100,00 %
20.05.2023 19:52 17,8 C 17,2 C 13,3 C 70 % 1019,2 hPa 0,0 l/m 0 min 0 min 46 W/m 9,7 km/h (2 Bft) 100,00 %
20.05.2023 19:54 17,8 C 17,2 C 13,3 C 70 % 1019,2 hPa 0,0 l/m 0 min 0 min 44 W/m 16,1 km/h (3 Bft) 97,87 %
20.05.2023 19:56 17,7 C 17,2 C 13,3 C 70 % 1019,2 hPa 0,0 l/m 0 min 0 min 41 W/m 9,7 km/h (2 Bft) 100,00 %
20.05.2023 19:58 17,7 C 17,2 C 13,3 C 71 % 1019,2 hPa 0,0 l/m 0 min 0 min 39 W/m 16,1 km/h (3 Bft) 100,00 %
20.05.2023 20:00 17,7 C 17,2 C 13,3 C 71 % 1019,2 hPa 0,0 l/m 0 min 0 min 35 W/m 9,7 km/h (2 Bft) 100,00 %
20.05.2023 20:02 17,7 C 17,2 C 13,3 C 71 % 1019,1 hPa 0,0 l/m 0 min 0 min 35 W/m 9,7 km/h (2 Bft) 100,00 %
20.05.2023 20:04 17,7 C 17,2 C 13,3 C 71 % 1019,1 hPa 0,0 l/m 0 min 0 min 36 W/m 9,7 km/h (2 Bft) 100,00 %
20.05.2023 20:06 17,7 C 17,2 C 13,3 C 71 % 1019,2 hPa 0,0 l/m 0 min 0 min 37 W/m 6,4 km/h (2 Bft) 100,00 %
20.05.2023 20:08 17,6 C 17,2 C 13,3 C 71 % 1019,2 hPa 0,0 l/m 0 min 0 min 37 W/m 16,1 km/h (3 Bft) 100,00 %
20.05.2023 20:10 17,6 C 17,2 C 13,3 C 71 % 1019,2 hPa 0,0 l/m 0 min 0 min 35 W/m 19,3 km/h (3 Bft) 100,00 %
20.05.2023 20:12 17,6 C 17,2 C 13,3 C 71 % 1019,2 hPa 0,0 l/m 0 min 0 min 33 W/m 9,7 km/h (2 Bft) 100,00 %
20.05.2023 20:14 17,6 C 17,2 C 13,3 C 71 % 1019,2 hPa 0,0 l/m 0 min 0 min 31 W/m 12,9 km/h (3 Bft) 100,00 %
20.05.2023 20:16 17,6 C 17,2 C 13,3 C 71 % 1019,3 hPa 0,0 l/m 0 min 0 min 29 W/m 6,4 km/h (2 Bft) 97,87 %
20.05.2023 20:18 17,6 C 16,7 C 13,3 C 71 % 1019,3 hPa 0,0 l/m 0 min 0 min 28 W/m 9,7 km/h (2 Bft) 97,87 %
20.05.2023 20:20 17,6 C 16,7 C 13,3 C 72 % 1019,3 hPa 0,0 l/m 0 min 0 min 28 W/m 9,7 km/h (2 Bft) 100,00 %
20.05.2023 20:22 17,5 C 16,7 C 13,3 C 72 % 1019,3 hPa 0,0 l/m 0 min 0 min 26 W/m 9,7 km/h (2 Bft) 100,00 %
20.05.2023 20:24 17,5 C 16,7 C 12,8 C 71 % 1019,3 hPa 0,0 l/m 0 min 0 min 26 W/m 16,1 km/h (3 Bft) 100,00 %
20.05.2023 20:26 17,5 C 16,7 C 12,8 C 71 % 1019,2 hPa 0,0 l/m 0 min 0 min 25 W/m 16,1 km/h (3 Bft) 95,65 %
20.05.2023 20:28 17,4 C 16,7 C 12,8 C 72 % 1019,3 hPa 0,0 l/m 0 min 0 min 22 W/m 9,7 km/h (2 Bft) 100,00 %
20.05.2023 20:30 17,4 C 16,7 C 12,8 C 72 % 1019,3 hPa 0,0 l/m 0 min 0 min 21 W/m 6,4 km/h (2 Bft) 97,87 %
20.05.2023 20:32 17,4 C 16,7 C 12,8 C 72 % 1019,3 hPa 0,0 l/m 0 min 0 min 20 W/m 9,7 km/h (2 Bft) 93,62 %
20.05.2023 20:34 17,4 C 16,7 C 12,8 C 72 % 1019,2 hPa 0,0 l/m 0 min 0 min 18 W/m 12,9 km/h (3 Bft) 97,87 %
20.05.2023 20:36 17,4 C 16,7 C 12,8 C 72 % 1019,3 hPa 0,0 l/m 0 min 0 min 17 W/m 6,4 km/h (2 Bft) 97,87 %
20.05.2023 20:38 17,3 C 16,7 C 12,8 C 72 % 1019,3 hPa 0,0 l/m 0 min 0 min 16 W/m 9,7 km/h (2 Bft) 97,87 %
20.05.2023 20:40 17,3 C 16,7 C 12,8 C 72 % 1019,3 hPa 0,0 l/m 0 min 0 min 14 W/m 9,7 km/h (2 Bft) 97,83 %
20.05.2023 20:42 17,3 C 16,7 C 12,8 C 72 % 1019,3 hPa 0,0 l/m 0 min 0 min 14 W/m 9,7 km/h (2 Bft) 97,87 %
20.05.2023 20:44 17,3 C 16,7 C 12,8 C 72 % 1019,4 hPa 0,0 l/m 0 min 0 min 12 W/m 6,4 km/h (2 Bft) 95,74 %
20.05.2023 20:46 17,3 C 16,7 C 12,8 C 72 % 1019,4 hPa 0,0 l/m 0 min 0 min 12 W/m 16,1 km/h (3 Bft) 93,62 %
20.05.2023 20:48 17,2 C 16,7 C 12,8 C 72 % 1019,4 hPa 0,0 l/m 0 min 0 min 11 W/m 9,7 km/h (2 Bft) 95,74 %
20.05.2023 20:50 17,2 C 16,7 C 12,8 C 72 % 1019,4 hPa 0,0 l/m 0 min 0 min 11 W/m 12,9 km/h (3 Bft) 95,74 %
20.05.2023 20:52 17,2 C 16,1 C 12,8 C 72 % 1019,4 hPa 0,0 l/m 0 min 0 min 10 W/m 9,7 km/h (2 Bft) 95,74 %
20.05.2023 20:54 17,2 C 16,1 C 12,8 C 72 % 1019,4 hPa 0,0 l/m 0 min 0 min 9 W/m 12,9 km/h (3 Bft) 95,65 %
20.05.2023 20:56 17,1 C 16,1 C 12,8 C 72 % 1019,3 hPa 0,0 l/m 0 min 0 min 9 W/m 6,4 km/h (2 Bft) 95,74 %
20.05.2023 20:58 17,1 C 16,1 C 12,8 C 72 % 1019,4 hPa 0,0 l/m 0 min 0 min 7 W/m 12,9 km/h (3 Bft) 95,74 %
20.05.2023 21:00 17,1 C 16,1 C 12,8 C 72 % 1019,3 hPa 0,0 l/m 0 min 0 min 7 W/m 9,7 km/h (2 Bft) 93,62 %
20.05.2023 21:02 17,1 C 16,1 C 12,8 C 72 % 1019,4 hPa 0,0 l/m 0 min 0 min 7 W/m 12,9 km/h (3 Bft) 93,62 %
20.05.2023 21:04 17,0 C 16,1 C 12,8 C 72 % 1019,3 hPa 0,0 l/m 0 min 0 min 5 W/m 9,7 km/h (2 Bft) 93,88 %
20.05.2023 21:06 17,0 C 16,1 C 12,8 C 73 % 1019,4 hPa 0,0 l/m 0 min 0 min 5 W/m 6,4 km/h (2 Bft) 96,55 %
20.05.2023 21:08 16,9 C 16,1 C 12,8 C 73 % 1019,4 hPa 0,0 l/m 0 min 0 min 5 W/m 12,9 km/h (3 Bft) 88,57 %
20.05.2023 21:10 16,9 C 16,1 C 12,8 C 73 % 1019,3 hPa 0,0 l/m 0 min 0 min 5 W/m 9,7 km/h (2 Bft) 93,62 %
20.05.2023 21:12 16,9 C 16,1 C 12,2 C 73 % 1019,4 hPa 0,0 l/m 0 min 0 min 5 W/m 9,7 km/h (2 Bft) 93,62 %
20.05.2023 21:14 16,9 C 16,1 C 12,2 C 73 % 1019,4 hPa 0,0 l/m 0 min 0 min 5 W/m 9,7 km/h (2 Bft) 93,62 %
20.05.2023 21:16 16,9 C 16,1 C 12,2 C 73 % 1019,3 hPa 0,0 l/m 0 min 0 min 1 W/m 9,7 km/h (2 Bft) 95,74 %
20.05.2023 21:18 16,8 C 16,1 C 12,2 C 73 % 1019,3 hPa 0,0 l/m 0 min 0 min 0 W/m 9,7 km/h (2 Bft) 95,65 %
20.05.2023 21:20 16,8 C 16,1 C 12,2 C 73 % 1019,3 hPa 0,0 l/m 0 min 0 min 0 W/m 9,7 km/h (2 Bft) 93,62 %
20.05.2023 21:22 16,8 C 16,1 C 12,2 C 73 % 1019,4 hPa 0,0 l/m 0 min 0 min 0 W/m 6,4 km/h (2 Bft) 95,74 %
20.05.2023 21:24 16,8 C 16,1 C 12,2 C 73 % 1019,4 hPa 0,0 l/m 0 min 0 min 0 W/m 9,7 km/h (2 Bft) 95,74 %
20.05.2023 21:26 16,8 C 16,1 C 12,2 C 73 % 1019,4 hPa 0,0 l/m 0 min 0 min 0 W/m 6,4 km/h (2 Bft) 95,74 %
20.05.2023 21:28 16,8 C 16,1 C 12,2 C 74 % 1019,4 hPa 0,0 l/m 0 min 0 min 0 W/m 6,4 km/h (2 Bft) 95,74 %
20.05.2023 21:30 16,7 C 16,1 C 12,2 C 74 % 1019,4 hPa 0,0 l/m 0 min 0 min 0 W/m 9,7 km/h (2 Bft) 93,62 %
20.05.2023 21:32 16,7 C 16,1 C 12,2 C 74 % 1019,4 hPa 0,0 l/m 0 min 0 min 0 W/m 6,4 km/h (2 Bft) 97,83 %
20.05.2023 21:34 16,7 C 16,1 C 12,2 C 74 % 1019,3 hPa 0,0 l/m 0 min 0 min 0 W/m 9,7 km/h (2 Bft) 97,87 %
20.05.2023 21:36 16,7 C 16,1 C 12,2 C 74 % 1019,4 hPa 0,0 l/m 0 min 0 min 0 W/m 9,7 km/h (2 Bft) 97,87 %
20.05.2023 21:38 16,7 C 16,1 C 12,2 C 74 % 1019,4 hPa 0,0 l/m 0 min 0 min 0 W/m 12,9 km/h (3 Bft) 98,00 %
20.05.2023 21:40 16,7 C 16,1 C 12,2 C 74 % 1019,4 hPa 0,0 l/m 0 min 0 min 0 W/m 6,4 km/h (2 Bft) 100,00 %
20.05.2023 21:42 16,7 C 16,1 C 12,2 C 74 % 1019,4 hPa 0,0 l/m 0 min 0 min 0 W/m 6,4 km/h (2 Bft) 100,00 %
20.05.2023 21:44 16,7 C 15,6 C 12,2 C 74 % 1019,3 hPa 0,0 l/m 0 min 0 min 0 W/m 9,7 km/h (2 Bft) 100,00 %
20.05.2023 21:46 16,6 C 15,6 C 12,2 C 74 % 1019,4 hPa 0,0 l/m 0 min 0 min 0 W/m 6,4 km/h (2 Bft) 97,87 %
20.05.2023 21:48 16,6 C 15,6 C 12,2 C 75 % 1019,4 hPa 0,0 l/m 0 min 0 min 0 W/m 6,4 km/h (2 Bft) 100,00 %
20.05.2023 21:50 16,6 C 15,6 C 12,2 C 75 % 1019,4 hPa 0,0 l/m 0 min 0 min 0 W/m 6,4 km/h (2 Bft) 100,00 %
20.05.2023 21:52 16,6 C 15,6 C 12,2 C 75 % 1019,4 hPa 0,0 l/m 0 min 0 min 0 W/m 9,7 km/h (2 Bft) 97,87 %
20.05.2023 21:54 16,5 C 15,6 C 11,7 C 75 % 1019,5 hPa 0,0 l/m 0 min 0 min 0 W/m 6,4 km/h (2 Bft) 100,00 %
20.05.2023 21:56 16,4 C 15,6 C 11,7 C 75 % 1019,5 hPa 0,0 l/m 0 min 0 min 0 W/m 6,4 km/h (2 Bft) 100,00 %
20.05.2023 21:58 16,4 C 15,6 C 11,7 C 75 % 1019,5 hPa 0,0 l/m 0 min 0 min 0 W/m 3,2 km/h (1 Bft) 100,00 %
20.05.2023 22:00 16,4 C 15,6 C 11,7 C 75 % 1019,5 hPa 0,0 l/m 0 min 0 min 0 W/m 9,7 km/h (2 Bft) 97,87 %
20.05.2023 22:02 16,4 C 15,6 C 11,7 C 75 % 1019,5 hPa 0,0 l/m 0 min 0 min 0 W/m 6,4 km/h (2 Bft) 97,87 %
20.05.2023 22:04 16,3 C 15,6 C 11,7 C 75 % 1019,6 hPa 0,0 l/m 0 min 0 min 0 W/m 3,2 km/h (1 Bft) 100,00 %
20.05.2023 22:06 16,3 C 15,0 C 11,7 C 76 % 1019,5 hPa 0,0 l/m 0 min 0 min 0 W/m 6,4 km/h (2 Bft) 100,00 %
20.05.2023 22:08 16,3 C 15,0 C 11,7 C 76 % 1019,6 hPa 0,0 l/m 0 min 0 min 0 W/m 3,2 km/h (1 Bft) 100,00 %
20.05.2023 22:10 16,3 C 15,0 C 11,7 C 76 % 1019,5 hPa 0,0 l/m 0 min 0 min 0 W/m 3,2 km/h (1 Bft) 100,00 %
20.05.2023 22:12 16,2 C 15,0 C 11,7 C 76 % 1019,5 hPa 0,0 l/m 0 min 0 min 0 W/m 3,2 km/h (1 Bft) 100,00 %
20.05.2023 22:14 16,2 C 15,0 C 11,1 C 76 % 1019,5 hPa 0,0 l/m 0 min 0 min 0 W/m 3,2 km/h (1 Bft) 100,00 %
20.05.2023 22:16 16,2 C 15,0 C 11,1 C 76 % 1019,5 hPa 0,0 l/m 0 min 0 min 0 W/m 3,2 km/h (1 Bft) 100,00 %
20.05.2023 22:18 16,1 C 15,0 C 11,1 C 77 % 1019,5 hPa 0,0 l/m 0 min 0 min 0 W/m 6,4 km/h (2 Bft) 100,00 %
20.05.2023 22:20 16,1 C 14,4 C 11,1 C 77 % 1019,6 hPa 0,0 l/m 0 min 0 min 0 W/m 6,4 km/h (2 Bft) 100,00 %
20.05.2023 22:22 15,9 C 14,4 C 11,1 C 77 % 1019,6 hPa 0,0 l/m 0 min 0 min 0 W/m 6,4 km/h (2 Bft) 100,00 %
20.05.2023 22:24 15,9 C 14,4 C 11,1 C 77 % 1019,6 hPa 0,0 l/m 0 min 0 min 0 W/m 6,4 km/h (2 Bft) 100,00 %
20.05.2023 22:26 15,8 C 14,4 C 11,1 C 77 % 1019,6 hPa 0,0 l/m 0 min 0 min 0 W/m 6,4 km/h (2 Bft) 100,00 %
20.05.2023 22:28 15,7 C 14,4 C 11,1 C 77 % 1019,6 hPa 0,0 l/m 0 min 0 min 0 W/m 6,4 km/h (2 Bft) 100,00 %
20.05.2023 22:30 15,6 C 14,4 C 10,6 C 78 % 1019,5 hPa 0,0 l/m 0 min 0 min 0 W/m 6,4 km/h (2 Bft) 100,00 %
20.05.2023 22:32 15,6 C 14,4 C 10,6 C 78 % 1019,5 hPa 0,0 l/m 0 min 0 min 0 W/m 3,2 km/h (1 Bft) 100,00 %
20.05.2023 22:34 15,4 C 14,4 C 10,6 C 78 % 1019,4 hPa 0,0 l/m 0 min 0 min 0 W/m 9,7 km/h (2 Bft) 97,87 %
20.05.2023 22:36 15,4 C 13,9 C 10,6 C 79 % 1019,4 hPa 0,0 l/m 0 min 0 min 0 W/m 6,4 km/h (2 Bft) 97,87 %
20.05.2023 22:38 15,3 C 13,9 C 10,6 C 78 % 1019,5 hPa 0,0 l/m 0 min 0 min 0 W/m 6,4 km/h (2 Bft) 100,00 %
20.05.2023 22:40 15,3 C 13,9 C 10,6 C 79 % 1019,4 hPa 0,0 l/m 0 min 0 min 0 W/m 6,4 km/h (2 Bft) 100,00 %
20.05.2023 22:42 15,3 C 13,9 C 10,6 C 79 % 1019,4 hPa 0,0 l/m 0 min 0 min 0 W/m 3,2 km/h (1 Bft) 97,87 %
20.05.2023 22:44 15,2 C 13,9 C 10,6 C 79 % 1019,5 hPa 0,0 l/m 0 min 0 min 0 W/m 6,4 km/h (2 Bft) 97,87 %
20.05.2023 22:46 15,1 C 13,9 C 10,6 C 79 % 1019,4 hPa 0,0 l/m 0 min 0 min 0 W/m 6,4 km/h (2 Bft) 100,00 %
20.05.2023 22:48 15,1 C 13,9 C 10,6 C 80 % 1019,4 hPa 0,0 l/m 0 min 0 min 0 W/m 3,2 km/h (1 Bft) 100,00 %
20.05.2023 22:50 15,1 C 13,9 C 10,6 C 80 % 1019,3 hPa 0,0 l/m 0 min 0 min 0 W/m 6,4 km/h (2 Bft) 100,00 %
20.05.2023 22:52 15,0 C 13,9 C 10,6 C 80 % 1019,3 hPa 0,0 l/m 0 min 0 min 0 W/m 3,2 km/h (1 Bft) 97,87 %
20.05.2023 22:54 15,0 C 13,9 C 10,6 C 80 % 1019,4 hPa 0,0 l/m 0 min 0 min 0 W/m 3,2 km/h (1 Bft) 95,74 %
20.05.2023 22:56 14,9 C 13,9 C 10,6 C 80 % 1019,3 hPa 0,0 l/m 0 min 0 min 0 W/m 3,2 km/h (1 Bft) 100,00 %
20.05.2023 22:58 14,9 C 13,9 C 10,6 C 80 % 1019,3 hPa 0,0 l/m 0 min 0 min 0 W/m 3,2 km/h (1 Bft) 97,87 %
20.05.2023 23:00 14,9 C 13,9 C 10,6 C 80 % 1019,3 hPa 0,0 l/m 0 min 0 min 0 W/m 6,4 km/h (2 Bft) 97,87 %
20.05.2023 23:02 14,8 C 13,9 C 10,6 C 80 % 1019,2 hPa 0,0 l/m 0 min 0 min 0 W/m 3,2 km/h (1 Bft) 93,62 %
20.05.2023 23:04 14,8 C 13,9 C 10,0 C 80 % 1019,3 hPa 0,0 l/m 0 min 0 min 0 W/m 6,4 km/h (2 Bft) 93,48 %
20.05.2023 23:06 14,8 C 13,9 C 10,0 C 81 % 1019,2 hPa 0,0 l/m 0 min 0 min 0 W/m 3,2 km/h (1 Bft) 96,61 %
20.05.2023 23:08 14,7 C 13,3 C 10,0 C 81 % 1019,2 hPa 0,0 l/m 0 min 0 min 0 W/m 3,2 km/h (1 Bft) 97,14 %
20.05.2023 23:10 14,7 C 13,3 C 10,0 C 81 % 1019,2 hPa 0,0 l/m 0 min 0 min 0 W/m 3,2 km/h (1 Bft) 95,74 %
20.05.2023 23:12 14,6 C 13,3 C 10,0 C 81 % 1019,2 hPa 0,0 l/m 0 min 0 min 0 W/m 3,2 km/h (1 Bft) 95,74 %
20.05.2023 23:14 14,6 C 13,3 C 10,0 C 81 % 1019,2 hPa 0,0 l/m 0 min 0 min 0 W/m 6,4 km/h (2 Bft) 93,62 %
20.05.2023 23:16 14,6 C 13,3 C 10,0 C 82 % 1019,2 hPa 0,0 l/m 0 min 0 min 0 W/m 6,4 km/h (2 Bft) 95,74 %
20.05.2023 23:18 14,5 C 13,3 C 10,0 C 82 % 1019,2 hPa 0,0 l/m 0 min 0 min 0 W/m 6,4 km/h (2 Bft) 95,65 %
20.05.2023 23:20 14,4 C 13,3 C 10,0 C 82 % 1019,3 hPa 0,0 l/m 0 min 0 min 0 W/m 3,2 km/h (1 Bft) 93,62 %
20.05.2023 23:22 14,4 C 13,3 C 10,0 C 82 % 1019,2 hPa 0,0 l/m 0 min 0 min 0 W/m 3,2 km/h (1 Bft) 95,74 %
20.05.2023 23:24 14,4 C 13,3 C 10,0 C 82 % 1019,2 hPa 0,0 l/m 0 min 0 min 0 W/m 3,2 km/h (1 Bft) 95,92 %
20.05.2023 23:26 14,4 C 13,3 C 10,0 C 82 % 1019,2 hPa 0,0 l/m 0 min 0 min 0 W/m 9,7 km/h (2 Bft) 97,87 %
20.05.2023 23:28 14,3 C 13,3 C 10,0 C 82 % 1019,2 hPa 0,0 l/m 0 min 0 min 0 W/m 6,4 km/h (2 Bft) 95,74 %
20.05.2023 23:30 14,3 C 13,3 C 10,0 C 82 % 1019,1 hPa 0,0 l/m 0 min 0 min 0 W/m 6,4 km/h (2 Bft) 100,00 %
20.05.2023 23:32 14,3 C 13,3 C 10,0 C 82 % 1019,2 hPa 0,0 l/m 0 min 0 min 0 W/m 9,7 km/h (2 Bft) 97,87 %
20.05.2023 23:34 14,3 C 13,3 C 10,0 C 82 % 1019,2 hPa 0,0 l/m 0 min 0 min 0 W/m 6,4 km/h (2 Bft) 95,74 %
20.05.2023 23:36 14,3 C 13,3 C 10,0 C 82 % 1019,2 hPa 0,0 l/m 0 min 0 min 0 W/m 9,7 km/h (2 Bft) 97,87 %
20.05.2023 23:38 14,3 C 13,3 C 10,0 C 83 % 1019,2 hPa 0,0 l/m 0 min 0 min 0 W/m 3,2 km/h (1 Bft) 95,74 %
20.05.2023 23:40 14,3 C 13,3 C 10,0 C 82 % 1019,1 hPa 0,0 l/m 0 min 0 min 0 W/m 3,2 km/h (1 Bft) 97,87 %
20.05.2023 23:42 14,3 C 13,3 C 10,0 C 82 % 1019,2 hPa 0,0 l/m 0 min 0 min 0 W/m 9,7 km/h (2 Bft) 95,74 %
20.05.2023 23:44 14,3 C 13,3 C 10,0 C 82 % 1019,2 hPa 0,0 l/m 0 min 0 min 0 W/m 6,4 km/h (2 Bft) 97,83 %
20.05.2023 23:46 14,3 C 13,3 C 10,0 C 83 % 1019,2 hPa 0,0 l/m 0 min 0 min 0 W/m 6,4 km/h (2 Bft) 95,74 %
20.05.2023 23:48 14,3 C 13,3 C 10,0 C 83 % 1019,1 hPa 0,0 l/m 0 min 0 min 0 W/m 3,2 km/h (1 Bft) 97,87 %
20.05.2023 23:50 14,3 C 13,3 C 10,0 C 83 % 1019,1 hPa 0,0 l/m 0 min 0 min 0 W/m 9,7 km/h (2 Bft) 97,87 %
20.05.2023 23:52 14,3 C 13,3 C 10,0 C 83 % 1019,0 hPa 0,0 l/m 0 min 0 min 0 W/m 6,4 km/h (2 Bft) 93,62 %
20.05.2023 23:54 14,3 C 13,3 C 10,0 C 83 % 1019,0 hPa 0,0 l/m 0 min 0 min 0 W/m 6,4 km/h (2 Bft) 97,87 %
20.05.2023 23:56 14,3 C 13,3 C 10,0 C 83 % 1019,0 hPa 0,0 l/m 0 min 0 min 0 W/m 12,9 km/h (3 Bft) 97,83 %
20.05.2023 23:58 14,3 C 13,3 C 10,0 C 83 % 1018,9 hPa 0,0 l/m 0 min 0 min 0 W/m 6,4 km/h (2 Bft) 97,92 %
_ Min-Zeit 05:40 05:30 05:34 16:28 18:02 - - - - 01:52 00:30
Minimum _ 11,1 C 10,0 C 6,7 C 62 % 1018,9 hPa - - - - 0,0 km/h (0 Bft) 51,06 %
_ Max-Zeit 15:44 13:14 16:52 23:38 00:00 00:00 12:12 00:00 13:12 08:28 00:00
Maximum _ 21,1 C 26,1 C 17,8 C 83 % 1023,6 hPa 0,0 l/m 4 min 0 min 970 W/m 29,0 km/h
N-NW (5 Bft)
100,00 %
Durchschnitt _ 15,9 C 16,5 C 11,9 C 71 % 1021,1 hPa #0,0 l/m #8:36 h #0 min. 323 W/m 11,4 km/h (2 Bft) 97,25 %
© 2023 W. Hausmann